<?xml version="1.0" encoding="UTF-8" standalone="no" ?>
<gpx xmlns="http://www.topografix.com/GPX/1/1" xmlns:xsi="http://www.w3.org/2001/XMLSchema-instance" xsi:schemaLocation="http://www.topografix.com/GPX/1/1 http://www.topografix.com/GPX/1/1/gpx.xsd" version="1.1" creator="VisuGPX - https://www.visugpx.com">
  <metadata>
    <name>rando IDF : Meudon et Clamart</name>
    <desc><![CDATA[Belle randonnée de 18 km au coeur des forêts de Meudon et Clamart. 
A lire aussi sur [url]htpp://trekkingzone.wordpress.com[/url]]]></desc>
  </metadata>
  <trk>
    <name><![CDATA[29 déc. 2019 à 10:18:22]]></name>
    <cmt><![CDATA[29 déc. 2019 à 10:18:22]]></cmt>
    <trkseg>
      <trkpt lat="48.81619" lon="2.19518">
        <ele>75</ele>
        <time>2019-12-29T09:18:23Z</time>
      </trkpt>
      <trkpt lat="48.81618" lon="2.19518">
        <ele>75</ele>
        <time>2019-12-29T09:18:24Z</time>
      </trkpt>
      <trkpt lat="48.81607" lon="2.1954">
        <ele>80</ele>
        <time>2019-12-29T09:18:59Z</time>
      </trkpt>
      <trkpt lat="48.81605" lon="2.19546">
        <ele>81</ele>
        <time>2019-12-29T09:19:04Z</time>
      </trkpt>
      <trkpt lat="48.8159" lon="2.19562">
        <ele>82</ele>
        <time>2019-12-29T09:19:14Z</time>
      </trkpt>
      <trkpt lat="48.81584" lon="2.19565">
        <ele>84</ele>
        <time>2019-12-29T09:19:21Z</time>
      </trkpt>
      <trkpt lat="48.81582" lon="2.19572">
        <ele>85</ele>
        <time>2019-12-29T09:19:26Z</time>
      </trkpt>
      <trkpt lat="48.81564" lon="2.19603">
        <ele>89</ele>
        <time>2019-12-29T09:19:47Z</time>
      </trkpt>
      <trkpt lat="48.81556" lon="2.1961">
        <ele>90</ele>
        <time>2019-12-29T09:19:55Z</time>
      </trkpt>
      <trkpt lat="48.81543" lon="2.19632">
        <ele>92</ele>
        <time>2019-12-29T09:20:12Z</time>
      </trkpt>
      <trkpt lat="48.81529" lon="2.19651">
        <ele>95</ele>
        <time>2019-12-29T09:20:28Z</time>
      </trkpt>
      <trkpt lat="48.81524" lon="2.19662">
        <ele>96</ele>
        <time>2019-12-29T09:20:39Z</time>
      </trkpt>
      <trkpt lat="48.81517" lon="2.19675">
        <ele>97</ele>
        <time>2019-12-29T09:20:48Z</time>
      </trkpt>
      <trkpt lat="48.81515" lon="2.19685">
        <ele>98</ele>
        <time>2019-12-29T09:20:54Z</time>
      </trkpt>
      <trkpt lat="48.81515" lon="2.19693">
        <ele>98</ele>
        <time>2019-12-29T09:20:58Z</time>
      </trkpt>
      <trkpt lat="48.81513" lon="2.197">
        <ele>99</ele>
        <time>2019-12-29T09:21:02Z</time>
      </trkpt>
      <trkpt lat="48.81514" lon="2.19707">
        <ele>100</ele>
        <time>2019-12-29T09:21:07Z</time>
      </trkpt>
      <trkpt lat="48.81519" lon="2.1971">
        <ele>100</ele>
        <time>2019-12-29T09:21:11Z</time>
      </trkpt>
      <trkpt lat="48.81523" lon="2.19716">
        <ele>100</ele>
        <time>2019-12-29T09:21:15Z</time>
      </trkpt>
      <trkpt lat="48.81533" lon="2.19725">
        <ele>101</ele>
        <time>2019-12-29T09:21:21Z</time>
      </trkpt>
      <trkpt lat="48.81542" lon="2.1973">
        <ele>102</ele>
        <time>2019-12-29T09:21:29Z</time>
      </trkpt>
      <trkpt lat="48.81546" lon="2.19735">
        <ele>102</ele>
        <time>2019-12-29T09:21:34Z</time>
      </trkpt>
      <trkpt lat="48.81552" lon="2.19735">
        <ele>103</ele>
        <time>2019-12-29T09:21:38Z</time>
      </trkpt>
      <trkpt lat="48.81561" lon="2.19741">
        <ele>103</ele>
        <time>2019-12-29T09:21:45Z</time>
      </trkpt>
      <trkpt lat="48.81562" lon="2.19749">
        <ele>104</ele>
        <time>2019-12-29T09:21:49Z</time>
      </trkpt>
      <trkpt lat="48.81575" lon="2.1976">
        <ele>105</ele>
        <time>2019-12-29T09:22:02Z</time>
      </trkpt>
      <trkpt lat="48.81579" lon="2.19773">
        <ele>106</ele>
        <time>2019-12-29T09:22:11Z</time>
      </trkpt>
      <trkpt lat="48.81578" lon="2.19788">
        <ele>106</ele>
        <time>2019-12-29T09:22:19Z</time>
      </trkpt>
      <trkpt lat="48.81564" lon="2.19816">
        <ele>109</ele>
        <time>2019-12-29T09:22:39Z</time>
      </trkpt>
      <trkpt lat="48.8156" lon="2.1982">
        <ele>109</ele>
        <time>2019-12-29T09:22:43Z</time>
      </trkpt>
      <trkpt lat="48.81559" lon="2.19828">
        <ele>109</ele>
        <time>2019-12-29T09:22:47Z</time>
      </trkpt>
      <trkpt lat="48.81556" lon="2.19835">
        <ele>109</ele>
        <time>2019-12-29T09:22:52Z</time>
      </trkpt>
      <trkpt lat="48.81551" lon="2.19838">
        <ele>112</ele>
        <time>2019-12-29T09:23:02Z</time>
      </trkpt>
      <trkpt lat="48.81552" lon="2.19856">
        <ele>115</ele>
        <time>2019-12-29T09:23:19Z</time>
      </trkpt>
      <trkpt lat="48.81552" lon="2.19869">
        <ele>117</ele>
        <time>2019-12-29T09:23:30Z</time>
      </trkpt>
      <trkpt lat="48.81543" lon="2.19878">
        <ele>118</ele>
        <time>2019-12-29T09:23:39Z</time>
      </trkpt>
      <trkpt lat="48.81536" lon="2.19882">
        <ele>119</ele>
        <time>2019-12-29T09:24:03Z</time>
      </trkpt>
      <trkpt lat="48.81537" lon="2.19891">
        <ele>119</ele>
        <time>2019-12-29T09:24:32Z</time>
      </trkpt>
      <trkpt lat="48.81539" lon="2.19897">
        <ele>120</ele>
        <time>2019-12-29T09:24:35Z</time>
      </trkpt>
      <trkpt lat="48.81559" lon="2.19918">
        <ele>122</ele>
        <time>2019-12-29T09:24:52Z</time>
      </trkpt>
      <trkpt lat="48.81564" lon="2.1993">
        <ele>123</ele>
        <time>2019-12-29T09:24:59Z</time>
      </trkpt>
      <trkpt lat="48.81563" lon="2.19945">
        <ele>124</ele>
        <time>2019-12-29T09:25:07Z</time>
      </trkpt>
      <trkpt lat="48.81576" lon="2.19985">
        <ele>125</ele>
        <time>2019-12-29T09:25:27Z</time>
      </trkpt>
      <trkpt lat="48.81576" lon="2.19999">
        <ele>125</ele>
        <time>2019-12-29T09:25:36Z</time>
      </trkpt>
      <trkpt lat="48.81579" lon="2.20015">
        <ele>125</ele>
        <time>2019-12-29T09:25:45Z</time>
      </trkpt>
      <trkpt lat="48.81585" lon="2.20026">
        <ele>125</ele>
        <time>2019-12-29T09:25:53Z</time>
      </trkpt>
      <trkpt lat="48.81591" lon="2.20042">
        <ele>126</ele>
        <time>2019-12-29T09:26:02Z</time>
      </trkpt>
      <trkpt lat="48.81592" lon="2.20057">
        <ele>126</ele>
        <time>2019-12-29T09:26:08Z</time>
      </trkpt>
      <trkpt lat="48.81599" lon="2.20069">
        <ele>126</ele>
        <time>2019-12-29T09:26:14Z</time>
      </trkpt>
      <trkpt lat="48.8161" lon="2.20109">
        <ele>125</ele>
        <time>2019-12-29T09:26:36Z</time>
      </trkpt>
      <trkpt lat="48.81617" lon="2.20137">
        <ele>125</ele>
        <time>2019-12-29T09:26:53Z</time>
      </trkpt>
      <trkpt lat="48.81642" lon="2.20201">
        <ele>126</ele>
        <time>2019-12-29T09:27:29Z</time>
      </trkpt>
      <trkpt lat="48.8165" lon="2.20212">
        <ele>126</ele>
        <time>2019-12-29T09:27:38Z</time>
      </trkpt>
      <trkpt lat="48.81657" lon="2.20238">
        <ele>126</ele>
        <time>2019-12-29T09:27:54Z</time>
      </trkpt>
      <trkpt lat="48.81658" lon="2.20253">
        <ele>126</ele>
        <time>2019-12-29T09:28:01Z</time>
      </trkpt>
      <trkpt lat="48.81642" lon="2.20251">
        <ele>129</ele>
        <time>2019-12-29T09:28:19Z</time>
      </trkpt>
      <trkpt lat="48.81631" lon="2.20257">
        <ele>130</ele>
        <time>2019-12-29T09:28:27Z</time>
      </trkpt>
      <trkpt lat="48.81604" lon="2.20252">
        <ele>133</ele>
        <time>2019-12-29T09:28:50Z</time>
      </trkpt>
      <trkpt lat="48.81595" lon="2.20245">
        <ele>135</ele>
        <time>2019-12-29T09:29:01Z</time>
      </trkpt>
      <trkpt lat="48.81584" lon="2.20244">
        <ele>137</ele>
        <time>2019-12-29T09:29:13Z</time>
      </trkpt>
      <trkpt lat="48.81574" lon="2.20241">
        <ele>137</ele>
        <time>2019-12-29T09:29:21Z</time>
      </trkpt>
      <trkpt lat="48.81556" lon="2.20231">
        <ele>139</ele>
        <time>2019-12-29T09:29:36Z</time>
      </trkpt>
      <trkpt lat="48.81547" lon="2.20233">
        <ele>140</ele>
        <time>2019-12-29T09:29:43Z</time>
      </trkpt>
      <trkpt lat="48.81518" lon="2.20222">
        <ele>142</ele>
        <time>2019-12-29T09:30:07Z</time>
      </trkpt>
      <trkpt lat="48.81501" lon="2.20206">
        <ele>143</ele>
        <time>2019-12-29T09:30:26Z</time>
      </trkpt>
      <trkpt lat="48.8148" lon="2.20198">
        <ele>143</ele>
        <time>2019-12-29T09:30:41Z</time>
      </trkpt>
      <trkpt lat="48.81471" lon="2.20199">
        <ele>143</ele>
        <time>2019-12-29T09:30:48Z</time>
      </trkpt>
      <trkpt lat="48.81461" lon="2.20197">
        <ele>143</ele>
        <time>2019-12-29T09:30:55Z</time>
      </trkpt>
      <trkpt lat="48.81451" lon="2.20193">
        <ele>144</ele>
        <time>2019-12-29T09:31:02Z</time>
      </trkpt>
      <trkpt lat="48.8144" lon="2.2019">
        <ele>145</ele>
        <time>2019-12-29T09:31:20Z</time>
      </trkpt>
      <trkpt lat="48.81437" lon="2.20209">
        <ele>147</ele>
        <time>2019-12-29T09:31:42Z</time>
      </trkpt>
      <trkpt lat="48.81441" lon="2.20242">
        <ele>147</ele>
        <time>2019-12-29T09:32:11Z</time>
      </trkpt>
      <trkpt lat="48.81434" lon="2.20253">
        <ele>147</ele>
        <time>2019-12-29T09:32:19Z</time>
      </trkpt>
      <trkpt lat="48.81433" lon="2.20284">
        <ele>148</ele>
        <time>2019-12-29T09:32:39Z</time>
      </trkpt>
      <trkpt lat="48.81433" lon="2.20298">
        <ele>148</ele>
        <time>2019-12-29T09:32:46Z</time>
      </trkpt>
      <trkpt lat="48.81432" lon="2.20314">
        <ele>148</ele>
        <time>2019-12-29T09:32:56Z</time>
      </trkpt>
      <trkpt lat="48.81429" lon="2.2033">
        <ele>149</ele>
        <time>2019-12-29T09:33:24Z</time>
      </trkpt>
      <trkpt lat="48.81423" lon="2.20342">
        <ele>151</ele>
        <time>2019-12-29T09:35:27Z</time>
      </trkpt>
      <trkpt lat="48.8142" lon="2.20356">
        <ele>152</ele>
        <time>2019-12-29T09:35:36Z</time>
      </trkpt>
      <trkpt lat="48.81417" lon="2.20402">
        <ele>153</ele>
        <time>2019-12-29T09:35:59Z</time>
      </trkpt>
      <trkpt lat="48.81415" lon="2.20416">
        <ele>153</ele>
        <time>2019-12-29T09:36:06Z</time>
      </trkpt>
      <trkpt lat="48.81415" lon="2.20429">
        <ele>154</ele>
        <time>2019-12-29T09:36:12Z</time>
      </trkpt>
      <trkpt lat="48.81412" lon="2.20447">
        <ele>154</ele>
        <time>2019-12-29T09:36:24Z</time>
      </trkpt>
      <trkpt lat="48.81411" lon="2.20482">
        <ele>156</ele>
        <time>2019-12-29T09:36:41Z</time>
      </trkpt>
      <trkpt lat="48.81406" lon="2.20511">
        <ele>156</ele>
        <time>2019-12-29T09:36:57Z</time>
      </trkpt>
      <trkpt lat="48.81405" lon="2.20526">
        <ele>157</ele>
        <time>2019-12-29T09:37:05Z</time>
      </trkpt>
      <trkpt lat="48.81403" lon="2.20541">
        <ele>157</ele>
        <time>2019-12-29T09:37:12Z</time>
      </trkpt>
      <trkpt lat="48.81402" lon="2.20569">
        <ele>158</ele>
        <time>2019-12-29T09:37:27Z</time>
      </trkpt>
      <trkpt lat="48.81398" lon="2.20599">
        <ele>158</ele>
        <time>2019-12-29T09:37:44Z</time>
      </trkpt>
      <trkpt lat="48.81399" lon="2.20614">
        <ele>158</ele>
        <time>2019-12-29T09:37:52Z</time>
      </trkpt>
      <trkpt lat="48.81395" lon="2.20644">
        <ele>159</ele>
        <time>2019-12-29T09:38:08Z</time>
      </trkpt>
      <trkpt lat="48.814" lon="2.20671">
        <ele>159</ele>
        <time>2019-12-29T09:38:20Z</time>
      </trkpt>
      <trkpt lat="48.81414" lon="2.20698">
        <ele>158</ele>
        <time>2019-12-29T09:38:39Z</time>
      </trkpt>
      <trkpt lat="48.81419" lon="2.2071">
        <ele>159</ele>
        <time>2019-12-29T09:38:46Z</time>
      </trkpt>
      <trkpt lat="48.81447" lon="2.20715">
        <ele>158</ele>
        <time>2019-12-29T09:39:11Z</time>
      </trkpt>
      <trkpt lat="48.8146" lon="2.20726">
        <ele>157</ele>
        <time>2019-12-29T09:39:27Z</time>
      </trkpt>
      <trkpt lat="48.81467" lon="2.20736">
        <ele>158</ele>
        <time>2019-12-29T09:39:35Z</time>
      </trkpt>
      <trkpt lat="48.81485" lon="2.20765">
        <ele>157</ele>
        <time>2019-12-29T09:40:07Z</time>
      </trkpt>
      <trkpt lat="48.8149" lon="2.20782">
        <ele>159</ele>
        <time>2019-12-29T09:43:07Z</time>
      </trkpt>
      <trkpt lat="48.81492" lon="2.20795">
        <ele>159</ele>
        <time>2019-12-29T09:43:13Z</time>
      </trkpt>
      <trkpt lat="48.81504" lon="2.20818">
        <ele>159</ele>
        <time>2019-12-29T09:43:28Z</time>
      </trkpt>
      <trkpt lat="48.81509" lon="2.2083">
        <ele>159</ele>
        <time>2019-12-29T09:43:36Z</time>
      </trkpt>
      <trkpt lat="48.81513" lon="2.20843">
        <ele>157</ele>
        <time>2019-12-29T09:43:44Z</time>
      </trkpt>
      <trkpt lat="48.81525" lon="2.20868">
        <ele>157</ele>
        <time>2019-12-29T09:43:59Z</time>
      </trkpt>
      <trkpt lat="48.8153" lon="2.2088">
        <ele>156</ele>
        <time>2019-12-29T09:44:07Z</time>
      </trkpt>
      <trkpt lat="48.81538" lon="2.20886">
        <ele>155</ele>
        <time>2019-12-29T09:44:14Z</time>
      </trkpt>
      <trkpt lat="48.81548" lon="2.20888">
        <ele>154</ele>
        <time>2019-12-29T09:44:21Z</time>
      </trkpt>
      <trkpt lat="48.81556" lon="2.20896">
        <ele>152</ele>
        <time>2019-12-29T09:44:29Z</time>
      </trkpt>
      <trkpt lat="48.81562" lon="2.20906">
        <ele>152</ele>
        <time>2019-12-29T09:44:36Z</time>
      </trkpt>
      <trkpt lat="48.81575" lon="2.20929">
        <ele>152</ele>
        <time>2019-12-29T09:44:50Z</time>
      </trkpt>
      <trkpt lat="48.81577" lon="2.20944">
        <ele>152</ele>
        <time>2019-12-29T09:45:06Z</time>
      </trkpt>
      <trkpt lat="48.81586" lon="2.20949">
        <ele>151</ele>
        <time>2019-12-29T09:45:15Z</time>
      </trkpt>
      <trkpt lat="48.81607" lon="2.20975">
        <ele>148</ele>
        <time>2019-12-29T09:45:46Z</time>
      </trkpt>
      <trkpt lat="48.81644" lon="2.20987">
        <ele>145</ele>
        <time>2019-12-29T09:46:14Z</time>
      </trkpt>
      <trkpt lat="48.81653" lon="2.20993">
        <ele>145</ele>
        <time>2019-12-29T09:46:20Z</time>
      </trkpt>
      <trkpt lat="48.8166" lon="2.21001">
        <ele>144</ele>
        <time>2019-12-29T09:46:28Z</time>
      </trkpt>
      <trkpt lat="48.81664" lon="2.21015">
        <ele>144</ele>
        <time>2019-12-29T09:46:36Z</time>
      </trkpt>
      <trkpt lat="48.81662" lon="2.2103">
        <ele>144</ele>
        <time>2019-12-29T09:46:48Z</time>
      </trkpt>
      <trkpt lat="48.81659" lon="2.21065">
        <ele>144</ele>
        <time>2019-12-29T09:47:21Z</time>
      </trkpt>
      <trkpt lat="48.81665" lon="2.21099">
        <ele>144</ele>
        <time>2019-12-29T09:47:49Z</time>
      </trkpt>
      <trkpt lat="48.81663" lon="2.21128">
        <ele>143</ele>
        <time>2019-12-29T09:48:04Z</time>
      </trkpt>
      <trkpt lat="48.81664" lon="2.21143">
        <ele>142</ele>
        <time>2019-12-29T09:48:13Z</time>
      </trkpt>
      <trkpt lat="48.81665" lon="2.21158">
        <ele>141</ele>
        <time>2019-12-29T09:48:20Z</time>
      </trkpt>
      <trkpt lat="48.81664" lon="2.21188">
        <ele>142</ele>
        <time>2019-12-29T09:48:35Z</time>
      </trkpt>
      <trkpt lat="48.81659" lon="2.21207">
        <ele>143</ele>
        <time>2019-12-29T09:49:20Z</time>
      </trkpt>
      <trkpt lat="48.81668" lon="2.21216">
        <ele>141</ele>
        <time>2019-12-29T09:49:38Z</time>
      </trkpt>
      <trkpt lat="48.8167" lon="2.21231">
        <ele>140</ele>
        <time>2019-12-29T09:49:48Z</time>
      </trkpt>
      <trkpt lat="48.81668" lon="2.21245">
        <ele>139</ele>
        <time>2019-12-29T09:49:56Z</time>
      </trkpt>
      <trkpt lat="48.8167" lon="2.21259">
        <ele>137</ele>
        <time>2019-12-29T09:50:04Z</time>
      </trkpt>
      <trkpt lat="48.81669" lon="2.21299">
        <ele>129</ele>
        <time>2019-12-29T09:50:38Z</time>
      </trkpt>
      <trkpt lat="48.8167" lon="2.2133">
        <ele>128</ele>
        <time>2019-12-29T09:50:54Z</time>
      </trkpt>
      <trkpt lat="48.81672" lon="2.21344">
        <ele>128</ele>
        <time>2019-12-29T09:51:02Z</time>
      </trkpt>
      <trkpt lat="48.81672" lon="2.21358">
        <ele>128</ele>
        <time>2019-12-29T09:51:11Z</time>
      </trkpt>
      <trkpt lat="48.81672" lon="2.21388">
        <ele>134</ele>
        <time>2019-12-29T09:51:35Z</time>
      </trkpt>
      <trkpt lat="48.8167" lon="2.21405">
        <ele>137</ele>
        <time>2019-12-29T09:51:47Z</time>
      </trkpt>
      <trkpt lat="48.81673" lon="2.21417">
        <ele>139</ele>
        <time>2019-12-29T09:51:56Z</time>
      </trkpt>
      <trkpt lat="48.81668" lon="2.21451">
        <ele>143</ele>
        <time>2019-12-29T09:52:21Z</time>
      </trkpt>
      <trkpt lat="48.81669" lon="2.21494">
        <ele>147</ele>
        <time>2019-12-29T09:52:50Z</time>
      </trkpt>
      <trkpt lat="48.81676" lon="2.21509">
        <ele>148</ele>
        <time>2019-12-29T09:53:02Z</time>
      </trkpt>
      <trkpt lat="48.81682" lon="2.21521">
        <ele>147</ele>
        <time>2019-12-29T09:53:21Z</time>
      </trkpt>
      <trkpt lat="48.81682" lon="2.21545">
        <ele>147</ele>
        <time>2019-12-29T09:53:39Z</time>
      </trkpt>
      <trkpt lat="48.81661" lon="2.2161">
        <ele>147</ele>
        <time>2019-12-29T09:54:15Z</time>
      </trkpt>
      <trkpt lat="48.81662" lon="2.21624">
        <ele>147</ele>
        <time>2019-12-29T09:54:21Z</time>
      </trkpt>
      <trkpt lat="48.81664" lon="2.21637">
        <ele>147</ele>
        <time>2019-12-29T09:54:28Z</time>
      </trkpt>
      <trkpt lat="48.81662" lon="2.21652">
        <ele>147</ele>
        <time>2019-12-29T09:54:35Z</time>
      </trkpt>
      <trkpt lat="48.81659" lon="2.21665">
        <ele>148</ele>
        <time>2019-12-29T09:54:42Z</time>
      </trkpt>
      <trkpt lat="48.81663" lon="2.21726">
        <ele>146</ele>
        <time>2019-12-29T09:55:15Z</time>
      </trkpt>
      <trkpt lat="48.81662" lon="2.2174">
        <ele>145</ele>
        <time>2019-12-29T09:55:23Z</time>
      </trkpt>
      <trkpt lat="48.81656" lon="2.21751">
        <ele>145</ele>
        <time>2019-12-29T09:55:31Z</time>
      </trkpt>
      <trkpt lat="48.81647" lon="2.21755">
        <ele>145</ele>
        <time>2019-12-29T09:55:39Z</time>
      </trkpt>
      <trkpt lat="48.81618" lon="2.21762">
        <ele>147</ele>
        <time>2019-12-29T09:56:05Z</time>
      </trkpt>
      <trkpt lat="48.81593" lon="2.2177">
        <ele>148</ele>
        <time>2019-12-29T09:56:28Z</time>
      </trkpt>
      <trkpt lat="48.81584" lon="2.2177">
        <ele>148</ele>
        <time>2019-12-29T09:56:36Z</time>
      </trkpt>
      <trkpt lat="48.81574" lon="2.21772">
        <ele>148</ele>
        <time>2019-12-29T09:56:43Z</time>
      </trkpt>
      <trkpt lat="48.81565" lon="2.21772">
        <ele>148</ele>
        <time>2019-12-29T09:56:50Z</time>
      </trkpt>
      <trkpt lat="48.81556" lon="2.21777">
        <ele>149</ele>
        <time>2019-12-29T09:56:59Z</time>
      </trkpt>
      <trkpt lat="48.81548" lon="2.21785">
        <ele>149</ele>
        <time>2019-12-29T09:57:07Z</time>
      </trkpt>
      <trkpt lat="48.81549" lon="2.218">
        <ele>149</ele>
        <time>2019-12-29T09:57:19Z</time>
      </trkpt>
      <trkpt lat="48.81546" lon="2.21818">
        <ele>149</ele>
        <time>2019-12-29T10:02:34Z</time>
      </trkpt>
      <trkpt lat="48.8154" lon="2.21847">
        <ele>147</ele>
        <time>2019-12-29T10:02:48Z</time>
      </trkpt>
      <trkpt lat="48.81542" lon="2.21861">
        <ele>147</ele>
        <time>2019-12-29T10:02:53Z</time>
      </trkpt>
      <trkpt lat="48.81547" lon="2.21874">
        <ele>147</ele>
        <time>2019-12-29T10:03:00Z</time>
      </trkpt>
      <trkpt lat="48.81553" lon="2.21885">
        <ele>147</ele>
        <time>2019-12-29T10:03:06Z</time>
      </trkpt>
      <trkpt lat="48.81569" lon="2.21902">
        <ele>146</ele>
        <time>2019-12-29T10:03:21Z</time>
      </trkpt>
      <trkpt lat="48.81581" lon="2.2197">
        <ele>140</ele>
        <time>2019-12-29T10:03:58Z</time>
      </trkpt>
      <trkpt lat="48.81581" lon="2.21984">
        <ele>138</ele>
        <time>2019-12-29T10:04:24Z</time>
      </trkpt>
      <trkpt lat="48.81623" lon="2.21976">
        <ele>136</ele>
        <time>2019-12-29T10:05:02Z</time>
      </trkpt>
      <trkpt lat="48.81633" lon="2.21973">
        <ele>136</ele>
        <time>2019-12-29T10:05:08Z</time>
      </trkpt>
      <trkpt lat="48.81642" lon="2.21976">
        <ele>134</ele>
        <time>2019-12-29T10:05:16Z</time>
      </trkpt>
      <trkpt lat="48.81644" lon="2.2198">
        <ele>135</ele>
        <time>2019-12-29T10:05:55Z</time>
      </trkpt>
      <trkpt lat="48.81629" lon="2.21998">
        <ele>135</ele>
        <time>2019-12-29T10:06:11Z</time>
      </trkpt>
      <trkpt lat="48.81592" lon="2.22013">
        <ele>134</ele>
        <time>2019-12-29T10:06:34Z</time>
      </trkpt>
      <trkpt lat="48.81572" lon="2.22014">
        <ele>133</ele>
        <time>2019-12-29T10:06:48Z</time>
      </trkpt>
      <trkpt lat="48.81563" lon="2.2201">
        <ele>132</ele>
        <time>2019-12-29T10:06:55Z</time>
      </trkpt>
      <trkpt lat="48.81557" lon="2.21999">
        <ele>133</ele>
        <time>2019-12-29T10:07:02Z</time>
      </trkpt>
      <trkpt lat="48.81548" lon="2.21992">
        <ele>134</ele>
        <time>2019-12-29T10:07:11Z</time>
      </trkpt>
      <trkpt lat="48.81537" lon="2.21977">
        <ele>135</ele>
        <time>2019-12-29T10:07:26Z</time>
      </trkpt>
      <trkpt lat="48.81505" lon="2.21942">
        <ele>139</ele>
        <time>2019-12-29T10:08:18Z</time>
      </trkpt>
      <trkpt lat="48.81478" lon="2.21927">
        <ele>142</ele>
        <time>2019-12-29T10:08:45Z</time>
      </trkpt>
      <trkpt lat="48.81466" lon="2.21914">
        <ele>146</ele>
        <time>2019-12-29T10:09:01Z</time>
      </trkpt>
      <trkpt lat="48.81475" lon="2.21887">
        <ele>147</ele>
        <time>2019-12-29T10:09:16Z</time>
      </trkpt>
      <trkpt lat="48.81477" lon="2.21874">
        <ele>147</ele>
        <time>2019-12-29T10:09:24Z</time>
      </trkpt>
      <trkpt lat="48.81488" lon="2.2185">
        <ele>148</ele>
        <time>2019-12-29T10:09:38Z</time>
      </trkpt>
      <trkpt lat="48.81495" lon="2.21842">
        <ele>149</ele>
        <time>2019-12-29T10:09:46Z</time>
      </trkpt>
      <trkpt lat="48.81506" lon="2.21841">
        <ele>149</ele>
        <time>2019-12-29T10:09:56Z</time>
      </trkpt>
      <trkpt lat="48.81525" lon="2.21842">
        <ele>149</ele>
        <time>2019-12-29T10:10:10Z</time>
      </trkpt>
      <trkpt lat="48.81533" lon="2.21834">
        <ele>149</ele>
        <time>2019-12-29T10:10:17Z</time>
      </trkpt>
      <trkpt lat="48.81541" lon="2.21827">
        <ele>149</ele>
        <time>2019-12-29T10:10:32Z</time>
      </trkpt>
      <trkpt lat="48.81545" lon="2.21801">
        <ele>149</ele>
        <time>2019-12-29T10:11:50Z</time>
      </trkpt>
      <trkpt lat="48.8155" lon="2.21791">
        <ele>149</ele>
        <time>2019-12-29T10:11:59Z</time>
      </trkpt>
      <trkpt lat="48.81555" lon="2.21804">
        <ele>148</ele>
        <time>2019-12-29T10:12:54Z</time>
      </trkpt>
      <trkpt lat="48.81552" lon="2.21821">
        <ele>147</ele>
        <time>2019-12-29T10:13:25Z</time>
      </trkpt>
      <trkpt lat="48.8155" lon="2.21837">
        <ele>147</ele>
        <time>2019-12-29T10:13:35Z</time>
      </trkpt>
      <trkpt lat="48.8155" lon="2.2185">
        <ele>147</ele>
        <time>2019-12-29T10:13:41Z</time>
      </trkpt>
      <trkpt lat="48.81533" lon="2.21848">
        <ele>147</ele>
        <time>2019-12-29T10:13:58Z</time>
      </trkpt>
      <trkpt lat="48.81522" lon="2.21852">
        <ele>147</ele>
        <time>2019-12-29T10:14:13Z</time>
      </trkpt>
      <trkpt lat="48.81511" lon="2.21867">
        <ele>143</ele>
        <time>2019-12-29T10:14:30Z</time>
      </trkpt>
      <trkpt lat="48.8151" lon="2.21884">
        <ele>140</ele>
        <time>2019-12-29T10:14:41Z</time>
      </trkpt>
      <trkpt lat="48.81513" lon="2.21914">
        <ele>139</ele>
        <time>2019-12-29T10:14:55Z</time>
      </trkpt>
      <trkpt lat="48.81511" lon="2.21927">
        <ele>138</ele>
        <time>2019-12-29T10:15:01Z</time>
      </trkpt>
      <trkpt lat="48.81506" lon="2.2194">
        <ele>138</ele>
        <time>2019-12-29T10:15:07Z</time>
      </trkpt>
      <trkpt lat="48.815" lon="2.21951">
        <ele>138</ele>
        <time>2019-12-29T10:15:14Z</time>
      </trkpt>
      <trkpt lat="48.8149" lon="2.21978">
        <ele>137</ele>
        <time>2019-12-29T10:15:27Z</time>
      </trkpt>
      <trkpt lat="48.81501" lon="2.22003">
        <ele>135</ele>
        <time>2019-12-29T10:15:42Z</time>
      </trkpt>
      <trkpt lat="48.81509" lon="2.22014">
        <ele>134</ele>
        <time>2019-12-29T10:15:50Z</time>
      </trkpt>
      <trkpt lat="48.81518" lon="2.22033">
        <ele>132</ele>
        <time>2019-12-29T10:16:05Z</time>
      </trkpt>
      <trkpt lat="48.81521" lon="2.22062">
        <ele>128</ele>
        <time>2019-12-29T10:16:21Z</time>
      </trkpt>
      <trkpt lat="48.81525" lon="2.22075">
        <ele>127</ele>
        <time>2019-12-29T10:16:27Z</time>
      </trkpt>
      <trkpt lat="48.81529" lon="2.22105">
        <ele>125</ele>
        <time>2019-12-29T10:16:43Z</time>
      </trkpt>
      <trkpt lat="48.81533" lon="2.22118">
        <ele>124</ele>
        <time>2019-12-29T10:16:49Z</time>
      </trkpt>
      <trkpt lat="48.81535" lon="2.22134">
        <ele>123</ele>
        <time>2019-12-29T10:16:57Z</time>
      </trkpt>
      <trkpt lat="48.81539" lon="2.22145">
        <ele>123</ele>
        <time>2019-12-29T10:17:02Z</time>
      </trkpt>
      <trkpt lat="48.8153" lon="2.22159">
        <ele>123</ele>
        <time>2019-12-29T10:17:14Z</time>
      </trkpt>
      <trkpt lat="48.81526" lon="2.22171">
        <ele>123</ele>
        <time>2019-12-29T10:17:20Z</time>
      </trkpt>
      <trkpt lat="48.8153" lon="2.22184">
        <ele>122</ele>
        <time>2019-12-29T10:17:26Z</time>
      </trkpt>
      <trkpt lat="48.81522" lon="2.22192">
        <ele>122</ele>
        <time>2019-12-29T10:17:35Z</time>
      </trkpt>
      <trkpt lat="48.81484" lon="2.22194">
        <ele>125</ele>
        <time>2019-12-29T10:17:58Z</time>
      </trkpt>
      <trkpt lat="48.81447" lon="2.22172">
        <ele>129</ele>
        <time>2019-12-29T10:18:29Z</time>
      </trkpt>
      <trkpt lat="48.8144" lon="2.22163">
        <ele>130</ele>
        <time>2019-12-29T10:18:36Z</time>
      </trkpt>
      <trkpt lat="48.81401" lon="2.22156">
        <ele>133</ele>
        <time>2019-12-29T10:19:08Z</time>
      </trkpt>
      <trkpt lat="48.81372" lon="2.22158">
        <ele>134</ele>
        <time>2019-12-29T10:19:33Z</time>
      </trkpt>
      <trkpt lat="48.81362" lon="2.22156">
        <ele>135</ele>
        <time>2019-12-29T10:19:41Z</time>
      </trkpt>
      <trkpt lat="48.81325" lon="2.22171">
        <ele>138</ele>
        <time>2019-12-29T10:20:12Z</time>
      </trkpt>
      <trkpt lat="48.81314" lon="2.22172">
        <ele>138</ele>
        <time>2019-12-29T10:20:19Z</time>
      </trkpt>
      <trkpt lat="48.81281" lon="2.22174">
        <ele>147</ele>
        <time>2019-12-29T10:20:56Z</time>
      </trkpt>
      <trkpt lat="48.81248" lon="2.22177">
        <ele>154</ele>
        <time>2019-12-29T10:21:52Z</time>
      </trkpt>
      <trkpt lat="48.81212" lon="2.22187">
        <ele>161</ele>
        <time>2019-12-29T10:22:29Z</time>
      </trkpt>
      <trkpt lat="48.81207" lon="2.22198">
        <ele>163</ele>
        <time>2019-12-29T10:22:41Z</time>
      </trkpt>
      <trkpt lat="48.81195" lon="2.22204">
        <ele>164</ele>
        <time>2019-12-29T10:23:24Z</time>
      </trkpt>
      <trkpt lat="48.8118" lon="2.22225">
        <ele>166</ele>
        <time>2019-12-29T10:23:43Z</time>
      </trkpt>
      <trkpt lat="48.81155" lon="2.22267">
        <ele>167</ele>
        <time>2019-12-29T10:24:18Z</time>
      </trkpt>
      <trkpt lat="48.81123" lon="2.22326">
        <ele>168</ele>
        <time>2019-12-29T10:24:54Z</time>
      </trkpt>
      <trkpt lat="48.8111" lon="2.22347">
        <ele>169</ele>
        <time>2019-12-29T10:25:08Z</time>
      </trkpt>
      <trkpt lat="48.81105" lon="2.22359">
        <ele>169</ele>
        <time>2019-12-29T10:25:17Z</time>
      </trkpt>
      <trkpt lat="48.81076" lon="2.22403">
        <ele>169</ele>
        <time>2019-12-29T10:25:45Z</time>
      </trkpt>
      <trkpt lat="48.81071" lon="2.22415">
        <ele>170</ele>
        <time>2019-12-29T10:25:52Z</time>
      </trkpt>
      <trkpt lat="48.81042" lon="2.22455">
        <ele>170</ele>
        <time>2019-12-29T10:26:23Z</time>
      </trkpt>
      <trkpt lat="48.81017" lon="2.22501">
        <ele>170</ele>
        <time>2019-12-29T10:26:55Z</time>
      </trkpt>
      <trkpt lat="48.80999" lon="2.22535">
        <ele>170</ele>
        <time>2019-12-29T10:27:20Z</time>
      </trkpt>
      <trkpt lat="48.80999" lon="2.2256">
        <ele>169</ele>
        <time>2019-12-29T10:28:29Z</time>
      </trkpt>
      <trkpt lat="48.80994" lon="2.22606">
        <ele>169</ele>
        <time>2019-12-29T10:28:55Z</time>
      </trkpt>
      <trkpt lat="48.80987" lon="2.22617">
        <ele>169</ele>
        <time>2019-12-29T10:29:03Z</time>
      </trkpt>
      <trkpt lat="48.80978" lon="2.22623">
        <ele>168</ele>
        <time>2019-12-29T10:29:10Z</time>
      </trkpt>
      <trkpt lat="48.80956" lon="2.22651">
        <ele>168</ele>
        <time>2019-12-29T10:29:37Z</time>
      </trkpt>
      <trkpt lat="48.80947" lon="2.22657">
        <ele>168</ele>
        <time>2019-12-29T10:29:46Z</time>
      </trkpt>
      <trkpt lat="48.8094" lon="2.22666">
        <ele>167</ele>
        <time>2019-12-29T10:29:54Z</time>
      </trkpt>
      <trkpt lat="48.80908" lon="2.22695">
        <ele>167</ele>
        <time>2019-12-29T10:30:23Z</time>
      </trkpt>
      <trkpt lat="48.80894" lon="2.22713">
        <ele>168</ele>
        <time>2019-12-29T10:30:38Z</time>
      </trkpt>
      <trkpt lat="48.80884" lon="2.2272">
        <ele>168</ele>
        <time>2019-12-29T10:30:47Z</time>
      </trkpt>
      <trkpt lat="48.80865" lon="2.22715">
        <ele>168</ele>
        <time>2019-12-29T10:31:02Z</time>
      </trkpt>
      <trkpt lat="48.80854" lon="2.22718">
        <ele>168</ele>
        <time>2019-12-29T10:31:10Z</time>
      </trkpt>
      <trkpt lat="48.80845" lon="2.22725">
        <ele>168</ele>
        <time>2019-12-29T10:31:17Z</time>
      </trkpt>
      <trkpt lat="48.80836" lon="2.22723">
        <ele>168</ele>
        <time>2019-12-29T10:31:25Z</time>
      </trkpt>
      <trkpt lat="48.80827" lon="2.22719">
        <ele>168</ele>
        <time>2019-12-29T10:31:32Z</time>
      </trkpt>
      <trkpt lat="48.80817" lon="2.22722">
        <ele>169</ele>
        <time>2019-12-29T10:31:41Z</time>
      </trkpt>
      <trkpt lat="48.80798" lon="2.22713">
        <ele>169</ele>
        <time>2019-12-29T10:31:55Z</time>
      </trkpt>
      <trkpt lat="48.8075" lon="2.22708">
        <ele>169</ele>
        <time>2019-12-29T10:32:32Z</time>
      </trkpt>
      <trkpt lat="48.8074" lon="2.22704">
        <ele>169</ele>
        <time>2019-12-29T10:32:39Z</time>
      </trkpt>
      <trkpt lat="48.80731" lon="2.22698">
        <ele>169</ele>
        <time>2019-12-29T10:32:46Z</time>
      </trkpt>
      <trkpt lat="48.80721" lon="2.22695">
        <ele>169</ele>
        <time>2019-12-29T10:32:54Z</time>
      </trkpt>
      <trkpt lat="48.80711" lon="2.22695">
        <ele>169</ele>
        <time>2019-12-29T10:33:02Z</time>
      </trkpt>
      <trkpt lat="48.80703" lon="2.22691">
        <ele>169</ele>
        <time>2019-12-29T10:33:09Z</time>
      </trkpt>
      <trkpt lat="48.8069" lon="2.22668">
        <ele>169</ele>
        <time>2019-12-29T10:33:24Z</time>
      </trkpt>
      <trkpt lat="48.80685" lon="2.22655">
        <ele>169</ele>
        <time>2019-12-29T10:33:32Z</time>
      </trkpt>
      <trkpt lat="48.8067" lon="2.22638">
        <ele>170</ele>
        <time>2019-12-29T10:33:51Z</time>
      </trkpt>
      <trkpt lat="48.80661" lon="2.22635">
        <ele>170</ele>
        <time>2019-12-29T10:33:58Z</time>
      </trkpt>
      <trkpt lat="48.80641" lon="2.22602">
        <ele>170</ele>
        <time>2019-12-29T10:34:23Z</time>
      </trkpt>
      <trkpt lat="48.80639" lon="2.22588">
        <ele>170</ele>
        <time>2019-12-29T10:34:31Z</time>
      </trkpt>
      <trkpt lat="48.80627" lon="2.22563">
        <ele>170</ele>
        <time>2019-12-29T10:34:47Z</time>
      </trkpt>
      <trkpt lat="48.80623" lon="2.22519">
        <ele>170</ele>
        <time>2019-12-29T10:35:09Z</time>
      </trkpt>
      <trkpt lat="48.80604" lon="2.22482">
        <ele>171</ele>
        <time>2019-12-29T10:35:45Z</time>
      </trkpt>
      <trkpt lat="48.80601" lon="2.22469">
        <ele>170</ele>
        <time>2019-12-29T10:35:53Z</time>
      </trkpt>
      <trkpt lat="48.80595" lon="2.22438">
        <ele>170</ele>
        <time>2019-12-29T10:36:11Z</time>
      </trkpt>
      <trkpt lat="48.80593" lon="2.22424">
        <ele>171</ele>
        <time>2019-12-29T10:36:18Z</time>
      </trkpt>
      <trkpt lat="48.80594" lon="2.2241">
        <ele>170</ele>
        <time>2019-12-29T10:36:24Z</time>
      </trkpt>
      <trkpt lat="48.80586" lon="2.22402">
        <ele>172</ele>
        <time>2019-12-29T10:36:33Z</time>
      </trkpt>
      <trkpt lat="48.80585" lon="2.22386">
        <ele>171</ele>
        <time>2019-12-29T10:36:46Z</time>
      </trkpt>
      <trkpt lat="48.80585" lon="2.2237">
        <ele>172</ele>
        <time>2019-12-29T10:36:55Z</time>
      </trkpt>
      <trkpt lat="48.80575" lon="2.22369">
        <ele>173</ele>
        <time>2019-12-29T10:37:18Z</time>
      </trkpt>
      <trkpt lat="48.8056" lon="2.22358">
        <ele>175</ele>
        <time>2019-12-29T10:38:12Z</time>
      </trkpt>
      <trkpt lat="48.80558" lon="2.22344">
        <ele>175</ele>
        <time>2019-12-29T10:38:21Z</time>
      </trkpt>
      <trkpt lat="48.80551" lon="2.22331">
        <ele>175</ele>
        <time>2019-12-29T10:38:32Z</time>
      </trkpt>
      <trkpt lat="48.80548" lon="2.22317">
        <ele>175</ele>
        <time>2019-12-29T10:38:40Z</time>
      </trkpt>
      <trkpt lat="48.80539" lon="2.22311">
        <ele>175</ele>
        <time>2019-12-29T10:38:46Z</time>
      </trkpt>
      <trkpt lat="48.8053" lon="2.22308">
        <ele>174</ele>
        <time>2019-12-29T10:38:53Z</time>
      </trkpt>
      <trkpt lat="48.80513" lon="2.22285">
        <ele>175</ele>
        <time>2019-12-29T10:39:40Z</time>
      </trkpt>
      <trkpt lat="48.80486" lon="2.22253">
        <ele>175</ele>
        <time>2019-12-29T10:40:07Z</time>
      </trkpt>
      <trkpt lat="48.80475" lon="2.22231">
        <ele>175</ele>
        <time>2019-12-29T10:40:23Z</time>
      </trkpt>
      <trkpt lat="48.80452" lon="2.22203">
        <ele>177</ele>
        <time>2019-12-29T10:40:46Z</time>
      </trkpt>
      <trkpt lat="48.80445" lon="2.22195">
        <ele>176</ele>
        <time>2019-12-29T10:40:52Z</time>
      </trkpt>
      <trkpt lat="48.80435" lon="2.22191">
        <ele>176</ele>
        <time>2019-12-29T10:41:00Z</time>
      </trkpt>
      <trkpt lat="48.80429" lon="2.22181">
        <ele>177</ele>
        <time>2019-12-29T10:41:08Z</time>
      </trkpt>
      <trkpt lat="48.80422" lon="2.22169">
        <ele>177</ele>
        <time>2019-12-29T10:41:17Z</time>
      </trkpt>
      <trkpt lat="48.80393" lon="2.22133">
        <ele>178</ele>
        <time>2019-12-29T10:41:45Z</time>
      </trkpt>
      <trkpt lat="48.80389" lon="2.2212">
        <ele>178</ele>
        <time>2019-12-29T10:41:53Z</time>
      </trkpt>
      <trkpt lat="48.80375" lon="2.22101">
        <ele>178</ele>
        <time>2019-12-29T10:42:06Z</time>
      </trkpt>
      <trkpt lat="48.80368" lon="2.2209">
        <ele>178</ele>
        <time>2019-12-29T10:42:14Z</time>
      </trkpt>
      <trkpt lat="48.80359" lon="2.22087">
        <ele>178</ele>
        <time>2019-12-29T10:42:22Z</time>
      </trkpt>
      <trkpt lat="48.80352" lon="2.22077">
        <ele>178</ele>
        <time>2019-12-29T10:42:30Z</time>
      </trkpt>
      <trkpt lat="48.80346" lon="2.22066">
        <ele>178</ele>
        <time>2019-12-29T10:42:39Z</time>
      </trkpt>
      <trkpt lat="48.80336" lon="2.2206">
        <ele>178</ele>
        <time>2019-12-29T10:42:48Z</time>
      </trkpt>
      <trkpt lat="48.80297" lon="2.22015">
        <ele>178</ele>
        <time>2019-12-29T10:43:26Z</time>
      </trkpt>
      <trkpt lat="48.80268" lon="2.22033">
        <ele>178</ele>
        <time>2019-12-29T10:43:53Z</time>
      </trkpt>
      <trkpt lat="48.80236" lon="2.22042">
        <ele>178</ele>
        <time>2019-12-29T10:44:28Z</time>
      </trkpt>
      <trkpt lat="48.80218" lon="2.22053">
        <ele>179</ele>
        <time>2019-12-29T10:44:43Z</time>
      </trkpt>
      <trkpt lat="48.80213" lon="2.22066">
        <ele>179</ele>
        <time>2019-12-29T10:44:52Z</time>
      </trkpt>
      <trkpt lat="48.80203" lon="2.22073">
        <ele>179</ele>
        <time>2019-12-29T10:45:01Z</time>
      </trkpt>
      <trkpt lat="48.80186" lon="2.22089">
        <ele>179</ele>
        <time>2019-12-29T10:45:14Z</time>
      </trkpt>
      <trkpt lat="48.8017" lon="2.22103">
        <ele>179</ele>
        <time>2019-12-29T10:45:27Z</time>
      </trkpt>
      <trkpt lat="48.80162" lon="2.2211">
        <ele>179</ele>
        <time>2019-12-29T10:45:37Z</time>
      </trkpt>
      <trkpt lat="48.80143" lon="2.22121">
        <ele>179</ele>
        <time>2019-12-29T10:45:53Z</time>
      </trkpt>
      <trkpt lat="48.80119" lon="2.22143">
        <ele>179</ele>
        <time>2019-12-29T10:46:13Z</time>
      </trkpt>
      <trkpt lat="48.80111" lon="2.22148">
        <ele>180</ele>
        <time>2019-12-29T10:46:20Z</time>
      </trkpt>
      <trkpt lat="48.80093" lon="2.2216">
        <ele>179</ele>
        <time>2019-12-29T10:46:38Z</time>
      </trkpt>
      <trkpt lat="48.80084" lon="2.22173">
        <ele>180</ele>
        <time>2019-12-29T10:46:50Z</time>
      </trkpt>
      <trkpt lat="48.80075" lon="2.22179">
        <ele>180</ele>
        <time>2019-12-29T10:46:57Z</time>
      </trkpt>
      <trkpt lat="48.80056" lon="2.22186">
        <ele>180</ele>
        <time>2019-12-29T10:47:13Z</time>
      </trkpt>
      <trkpt lat="48.80038" lon="2.22196">
        <ele>180</ele>
        <time>2019-12-29T10:47:29Z</time>
      </trkpt>
      <trkpt lat="48.8003" lon="2.22205">
        <ele>180</ele>
        <time>2019-12-29T10:47:36Z</time>
      </trkpt>
      <trkpt lat="48.80021" lon="2.22209">
        <ele>180</ele>
        <time>2019-12-29T10:47:44Z</time>
      </trkpt>
      <trkpt lat="48.80014" lon="2.22217">
        <ele>180</ele>
        <time>2019-12-29T10:47:53Z</time>
      </trkpt>
      <trkpt lat="48.80004" lon="2.22221">
        <ele>180</ele>
        <time>2019-12-29T10:48:03Z</time>
      </trkpt>
      <trkpt lat="48.79988" lon="2.22238">
        <ele>180</ele>
        <time>2019-12-29T10:48:15Z</time>
      </trkpt>
      <trkpt lat="48.79966" lon="2.22283">
        <ele>180</ele>
        <time>2019-12-29T10:48:47Z</time>
      </trkpt>
      <trkpt lat="48.79962" lon="2.22295">
        <ele>180</ele>
        <time>2019-12-29T10:48:54Z</time>
      </trkpt>
      <trkpt lat="48.79962" lon="2.2231">
        <ele>180</ele>
        <time>2019-12-29T10:49:01Z</time>
      </trkpt>
      <trkpt lat="48.79937" lon="2.22374">
        <ele>179</ele>
        <time>2019-12-29T10:49:39Z</time>
      </trkpt>
      <trkpt lat="48.7992" lon="2.22408">
        <ele>178</ele>
        <time>2019-12-29T10:50:03Z</time>
      </trkpt>
      <trkpt lat="48.79917" lon="2.22423">
        <ele>178</ele>
        <time>2019-12-29T10:50:11Z</time>
      </trkpt>
      <trkpt lat="48.79916" lon="2.22437">
        <ele>178</ele>
        <time>2019-12-29T10:50:18Z</time>
      </trkpt>
      <trkpt lat="48.79918" lon="2.22487">
        <ele>177</ele>
        <time>2019-12-29T10:50:50Z</time>
      </trkpt>
      <trkpt lat="48.79914" lon="2.22491">
        <ele>175</ele>
        <time>2019-12-29T10:50:56Z</time>
      </trkpt>
      <trkpt lat="48.79903" lon="2.22489">
        <ele>172</ele>
        <time>2019-12-29T10:51:09Z</time>
      </trkpt>
      <trkpt lat="48.79899" lon="2.22494">
        <ele>170</ele>
        <time>2019-12-29T10:51:17Z</time>
      </trkpt>
      <trkpt lat="48.79894" lon="2.22497">
        <ele>166</ele>
        <time>2019-12-29T10:51:29Z</time>
      </trkpt>
      <trkpt lat="48.79891" lon="2.22509">
        <ele>164</ele>
        <time>2019-12-29T10:51:47Z</time>
      </trkpt>
      <trkpt lat="48.79884" lon="2.22511">
        <ele>161</ele>
        <time>2019-12-29T10:51:58Z</time>
      </trkpt>
      <trkpt lat="48.79873" lon="2.22514">
        <ele>158</ele>
        <time>2019-12-29T10:52:10Z</time>
      </trkpt>
      <trkpt lat="48.7986" lon="2.22518">
        <ele>158</ele>
        <time>2019-12-29T10:53:09Z</time>
      </trkpt>
      <trkpt lat="48.7986" lon="2.2254">
        <ele>155</ele>
        <time>2019-12-29T10:53:36Z</time>
      </trkpt>
      <trkpt lat="48.79853" lon="2.22549">
        <ele>152</ele>
        <time>2019-12-29T10:53:47Z</time>
      </trkpt>
      <trkpt lat="48.79846" lon="2.22582">
        <ele>149</ele>
        <time>2019-12-29T10:54:13Z</time>
      </trkpt>
      <trkpt lat="48.79833" lon="2.22613">
        <ele>145</ele>
        <time>2019-12-29T10:54:37Z</time>
      </trkpt>
      <trkpt lat="48.798" lon="2.22649">
        <ele>141</ele>
        <time>2019-12-29T10:55:14Z</time>
      </trkpt>
      <trkpt lat="48.79792" lon="2.22656">
        <ele>141</ele>
        <time>2019-12-29T10:55:22Z</time>
      </trkpt>
      <trkpt lat="48.79784" lon="2.22667">
        <ele>141</ele>
        <time>2019-12-29T10:55:29Z</time>
      </trkpt>
      <trkpt lat="48.79779" lon="2.2268">
        <ele>141</ele>
        <time>2019-12-29T10:55:38Z</time>
      </trkpt>
      <trkpt lat="48.79764" lon="2.22736">
        <ele>142</ele>
        <time>2019-12-29T10:56:12Z</time>
      </trkpt>
      <trkpt lat="48.79764" lon="2.22743">
        <ele>142</ele>
        <time>2019-12-29T10:56:16Z</time>
      </trkpt>
      <trkpt lat="48.79765" lon="2.2275">
        <ele>143</ele>
        <time>2019-12-29T10:56:21Z</time>
      </trkpt>
      <trkpt lat="48.79766" lon="2.22771">
        <ele>142</ele>
        <time>2019-12-29T10:56:38Z</time>
      </trkpt>
      <trkpt lat="48.79761" lon="2.22774">
        <ele>142</ele>
        <time>2019-12-29T10:56:43Z</time>
      </trkpt>
      <trkpt lat="48.79759" lon="2.22786">
        <ele>141</ele>
        <time>2019-12-29T10:56:54Z</time>
      </trkpt>
      <trkpt lat="48.79752" lon="2.22808">
        <ele>140</ele>
        <time>2019-12-29T10:57:06Z</time>
      </trkpt>
      <trkpt lat="48.79752" lon="2.22839">
        <ele>139</ele>
        <time>2019-12-29T10:57:22Z</time>
      </trkpt>
      <trkpt lat="48.79756" lon="2.22852">
        <ele>139</ele>
        <time>2019-12-29T10:57:30Z</time>
      </trkpt>
      <trkpt lat="48.79756" lon="2.22883">
        <ele>138</ele>
        <time>2019-12-29T10:57:44Z</time>
      </trkpt>
      <trkpt lat="48.79758" lon="2.22891">
        <ele>138</ele>
        <time>2019-12-29T10:57:49Z</time>
      </trkpt>
      <trkpt lat="48.7976" lon="2.22898">
        <ele>137</ele>
        <time>2019-12-29T10:57:53Z</time>
      </trkpt>
      <trkpt lat="48.79761" lon="2.22906">
        <ele>137</ele>
        <time>2019-12-29T10:57:57Z</time>
      </trkpt>
      <trkpt lat="48.79765" lon="2.22914">
        <ele>137</ele>
        <time>2019-12-29T10:58:02Z</time>
      </trkpt>
      <trkpt lat="48.79767" lon="2.2293">
        <ele>136</ele>
        <time>2019-12-29T10:58:10Z</time>
      </trkpt>
      <trkpt lat="48.79775" lon="2.22963">
        <ele>135</ele>
        <time>2019-12-29T10:58:31Z</time>
      </trkpt>
      <trkpt lat="48.7978" lon="2.23009">
        <ele>134</ele>
        <time>2019-12-29T10:58:54Z</time>
      </trkpt>
      <trkpt lat="48.79789" lon="2.23036">
        <ele>134</ele>
        <time>2019-12-29T10:59:08Z</time>
      </trkpt>
      <trkpt lat="48.79789" lon="2.23079">
        <ele>132</ele>
        <time>2019-12-29T10:59:30Z</time>
      </trkpt>
      <trkpt lat="48.79774" lon="2.23148">
        <ele>129</ele>
        <time>2019-12-29T11:00:07Z</time>
      </trkpt>
      <trkpt lat="48.79768" lon="2.23176">
        <ele>128</ele>
        <time>2019-12-29T11:00:22Z</time>
      </trkpt>
      <trkpt lat="48.79763" lon="2.23189">
        <ele>127</ele>
        <time>2019-12-29T11:00:30Z</time>
      </trkpt>
      <trkpt lat="48.79753" lon="2.23194">
        <ele>127</ele>
        <time>2019-12-29T11:00:38Z</time>
      </trkpt>
      <trkpt lat="48.79744" lon="2.23199">
        <ele>127</ele>
        <time>2019-12-29T11:00:44Z</time>
      </trkpt>
      <trkpt lat="48.79737" lon="2.23209">
        <ele>127</ele>
        <time>2019-12-29T11:00:51Z</time>
      </trkpt>
      <trkpt lat="48.79735" lon="2.23224">
        <ele>126</ele>
        <time>2019-12-29T11:00:59Z</time>
      </trkpt>
      <trkpt lat="48.79742" lon="2.23251">
        <ele>126</ele>
        <time>2019-12-29T11:01:13Z</time>
      </trkpt>
      <trkpt lat="48.79735" lon="2.23262">
        <ele>126</ele>
        <time>2019-12-29T11:01:25Z</time>
      </trkpt>
      <trkpt lat="48.79703" lon="2.23294">
        <ele>126</ele>
        <time>2019-12-29T11:01:52Z</time>
      </trkpt>
      <trkpt lat="48.79697" lon="2.23304">
        <ele>126</ele>
        <time>2019-12-29T11:01:59Z</time>
      </trkpt>
      <trkpt lat="48.79656" lon="2.23349">
        <ele>126</ele>
        <time>2019-12-29T11:02:37Z</time>
      </trkpt>
      <trkpt lat="48.7964" lon="2.23365">
        <ele>126</ele>
        <time>2019-12-29T11:02:54Z</time>
      </trkpt>
      <trkpt lat="48.79605" lon="2.23412">
        <ele>127</ele>
        <time>2019-12-29T11:03:32Z</time>
      </trkpt>
      <trkpt lat="48.79572" lon="2.23445">
        <ele>129</ele>
        <time>2019-12-29T11:04:01Z</time>
      </trkpt>
      <trkpt lat="48.79563" lon="2.23451">
        <ele>129</ele>
        <time>2019-12-29T11:04:08Z</time>
      </trkpt>
      <trkpt lat="48.79554" lon="2.23455">
        <ele>129</ele>
        <time>2019-12-29T11:04:14Z</time>
      </trkpt>
      <trkpt lat="48.79534" lon="2.23449">
        <ele>130</ele>
        <time>2019-12-29T11:04:27Z</time>
      </trkpt>
      <trkpt lat="48.79524" lon="2.23449">
        <ele>130</ele>
        <time>2019-12-29T11:04:33Z</time>
      </trkpt>
      <trkpt lat="48.7952" lon="2.23448">
        <ele>131</ele>
        <time>2019-12-29T11:04:36Z</time>
      </trkpt>
      <trkpt lat="48.79513" lon="2.23442">
        <ele>131</ele>
        <time>2019-12-29T11:04:58Z</time>
      </trkpt>
      <trkpt lat="48.79508" lon="2.2344">
        <ele>131</ele>
        <time>2019-12-29T11:05:04Z</time>
      </trkpt>
      <trkpt lat="48.79499" lon="2.23443">
        <ele>131</ele>
        <time>2019-12-29T11:06:29Z</time>
      </trkpt>
      <trkpt lat="48.79494" lon="2.23429">
        <ele>131</ele>
        <time>2019-12-29T11:06:36Z</time>
      </trkpt>
      <trkpt lat="48.79477" lon="2.23428">
        <ele>131</ele>
        <time>2019-12-29T11:06:51Z</time>
      </trkpt>
      <trkpt lat="48.79459" lon="2.23423">
        <ele>130</ele>
        <time>2019-12-29T11:07:20Z</time>
      </trkpt>
      <trkpt lat="48.7944" lon="2.2343">
        <ele>131</ele>
        <time>2019-12-29T11:07:32Z</time>
      </trkpt>
      <trkpt lat="48.79422" lon="2.23424">
        <ele>131</ele>
        <time>2019-12-29T11:07:47Z</time>
      </trkpt>
      <trkpt lat="48.79414" lon="2.23419">
        <ele>131</ele>
        <time>2019-12-29T11:07:53Z</time>
      </trkpt>
      <trkpt lat="48.79405" lon="2.23421">
        <ele>131</ele>
        <time>2019-12-29T11:07:59Z</time>
      </trkpt>
      <trkpt lat="48.79395" lon="2.23419">
        <ele>131</ele>
        <time>2019-12-29T11:08:07Z</time>
      </trkpt>
      <trkpt lat="48.79377" lon="2.23436">
        <ele>131</ele>
        <time>2019-12-29T11:08:23Z</time>
      </trkpt>
      <trkpt lat="48.79364" lon="2.23438">
        <ele>131</ele>
        <time>2019-12-29T11:08:35Z</time>
      </trkpt>
      <trkpt lat="48.79356" lon="2.23447">
        <ele>131</ele>
        <time>2019-12-29T11:08:41Z</time>
      </trkpt>
      <trkpt lat="48.79347" lon="2.23444">
        <ele>132</ele>
        <time>2019-12-29T11:08:46Z</time>
      </trkpt>
      <trkpt lat="48.7933" lon="2.23458">
        <ele>132</ele>
        <time>2019-12-29T11:09:00Z</time>
      </trkpt>
      <trkpt lat="48.79323" lon="2.23466">
        <ele>133</ele>
        <time>2019-12-29T11:09:09Z</time>
      </trkpt>
      <trkpt lat="48.79295" lon="2.23468">
        <ele>134</ele>
        <time>2019-12-29T11:09:33Z</time>
      </trkpt>
      <trkpt lat="48.79284" lon="2.23466">
        <ele>134</ele>
        <time>2019-12-29T11:09:41Z</time>
      </trkpt>
      <trkpt lat="48.79275" lon="2.23466">
        <ele>134</ele>
        <time>2019-12-29T11:09:51Z</time>
      </trkpt>
      <trkpt lat="48.79266" lon="2.23475">
        <ele>135</ele>
        <time>2019-12-29T11:10:00Z</time>
      </trkpt>
      <trkpt lat="48.79257" lon="2.23479">
        <ele>135</ele>
        <time>2019-12-29T11:10:05Z</time>
      </trkpt>
      <trkpt lat="48.7925" lon="2.23489">
        <ele>135</ele>
        <time>2019-12-29T11:10:13Z</time>
      </trkpt>
      <trkpt lat="48.79213" lon="2.23496">
        <ele>136</ele>
        <time>2019-12-29T11:10:47Z</time>
      </trkpt>
      <trkpt lat="48.79184" lon="2.23504">
        <ele>137</ele>
        <time>2019-12-29T11:11:08Z</time>
      </trkpt>
      <trkpt lat="48.79175" lon="2.23514">
        <ele>137</ele>
        <time>2019-12-29T11:11:16Z</time>
      </trkpt>
      <trkpt lat="48.79181" lon="2.23512">
        <ele>137</ele>
        <time>2019-12-29T11:12:51Z</time>
      </trkpt>
      <trkpt lat="48.79186" lon="2.23536">
        <ele>142</ele>
        <time>2019-12-29T11:13:08Z</time>
      </trkpt>
      <trkpt lat="48.79188" lon="2.23543">
        <ele>143</ele>
        <time>2019-12-29T11:13:12Z</time>
      </trkpt>
      <trkpt lat="48.79192" lon="2.23549">
        <ele>146</ele>
        <time>2019-12-29T11:13:24Z</time>
      </trkpt>
      <trkpt lat="48.79191" lon="2.23557">
        <ele>148</ele>
        <time>2019-12-29T11:13:34Z</time>
      </trkpt>
      <trkpt lat="48.79191" lon="2.23574">
        <ele>152</ele>
        <time>2019-12-29T11:13:48Z</time>
      </trkpt>
      <trkpt lat="48.79194" lon="2.23589">
        <ele>152</ele>
        <time>2019-12-29T11:14:24Z</time>
      </trkpt>
      <trkpt lat="48.79205" lon="2.23587">
        <ele>151</ele>
        <time>2019-12-29T11:14:37Z</time>
      </trkpt>
      <trkpt lat="48.79213" lon="2.23581">
        <ele>150</ele>
        <time>2019-12-29T11:14:44Z</time>
      </trkpt>
      <trkpt lat="48.79227" lon="2.23588">
        <ele>147</ele>
        <time>2019-12-29T11:15:03Z</time>
      </trkpt>
      <trkpt lat="48.79235" lon="2.23595">
        <ele>147</ele>
        <time>2019-12-29T11:15:09Z</time>
      </trkpt>
      <trkpt lat="48.79243" lon="2.23626">
        <ele>146</ele>
        <time>2019-12-29T11:15:26Z</time>
      </trkpt>
      <trkpt lat="48.79248" lon="2.23636">
        <ele>146</ele>
        <time>2019-12-29T11:15:33Z</time>
      </trkpt>
      <trkpt lat="48.79249" lon="2.23645">
        <ele>147</ele>
        <time>2019-12-29T11:15:47Z</time>
      </trkpt>
      <trkpt lat="48.79254" lon="2.23643">
        <ele>147</ele>
        <time>2019-12-29T11:15:50Z</time>
      </trkpt>
      <trkpt lat="48.79259" lon="2.23645">
        <ele>147</ele>
        <time>2019-12-29T11:16:00Z</time>
      </trkpt>
      <trkpt lat="48.79273" lon="2.23641">
        <ele>146</ele>
        <time>2019-12-29T11:16:15Z</time>
      </trkpt>
      <trkpt lat="48.79293" lon="2.23638">
        <ele>145</ele>
        <time>2019-12-29T11:16:35Z</time>
      </trkpt>
      <trkpt lat="48.79299" lon="2.23634">
        <ele>145</ele>
        <time>2019-12-29T11:16:41Z</time>
      </trkpt>
      <trkpt lat="48.79308" lon="2.2363">
        <ele>145</ele>
        <time>2019-12-29T11:16:48Z</time>
      </trkpt>
      <trkpt lat="48.79323" lon="2.23626">
        <ele>144</ele>
        <time>2019-12-29T11:16:59Z</time>
      </trkpt>
      <trkpt lat="48.79338" lon="2.23615">
        <ele>144</ele>
        <time>2019-12-29T11:17:13Z</time>
      </trkpt>
      <trkpt lat="48.79378" lon="2.23607">
        <ele>141</ele>
        <time>2019-12-29T11:17:50Z</time>
      </trkpt>
      <trkpt lat="48.79412" lon="2.236">
        <ele>139</ele>
        <time>2019-12-29T11:18:13Z</time>
      </trkpt>
      <trkpt lat="48.79428" lon="2.23594">
        <ele>137</ele>
        <time>2019-12-29T11:18:27Z</time>
      </trkpt>
      <trkpt lat="48.79442" lon="2.236">
        <ele>136</ele>
        <time>2019-12-29T11:18:43Z</time>
      </trkpt>
      <trkpt lat="48.79473" lon="2.23601">
        <ele>132</ele>
        <time>2019-12-29T11:19:05Z</time>
      </trkpt>
      <trkpt lat="48.79479" lon="2.23606">
        <ele>132</ele>
        <time>2019-12-29T11:19:09Z</time>
      </trkpt>
      <trkpt lat="48.79483" lon="2.23613">
        <ele>131</ele>
        <time>2019-12-29T11:19:13Z</time>
      </trkpt>
      <trkpt lat="48.79486" lon="2.2362">
        <ele>131</ele>
        <time>2019-12-29T11:19:17Z</time>
      </trkpt>
      <trkpt lat="48.79487" lon="2.23628">
        <ele>130</ele>
        <time>2019-12-29T11:19:21Z</time>
      </trkpt>
      <trkpt lat="48.79489" lon="2.23635">
        <ele>130</ele>
        <time>2019-12-29T11:19:25Z</time>
      </trkpt>
      <trkpt lat="48.79489" lon="2.23651">
        <ele>129</ele>
        <time>2019-12-29T11:19:35Z</time>
      </trkpt>
      <trkpt lat="48.79488" lon="2.23659">
        <ele>129</ele>
        <time>2019-12-29T11:19:39Z</time>
      </trkpt>
      <trkpt lat="48.79496" lon="2.23716">
        <ele>126</ele>
        <time>2019-12-29T11:20:10Z</time>
      </trkpt>
      <trkpt lat="48.79493" lon="2.23775">
        <ele>125</ele>
        <time>2019-12-29T11:20:40Z</time>
      </trkpt>
      <trkpt lat="48.79494" lon="2.23789">
        <ele>124</ele>
        <time>2019-12-29T11:20:47Z</time>
      </trkpt>
      <trkpt lat="48.79497" lon="2.23802">
        <ele>124</ele>
        <time>2019-12-29T11:20:53Z</time>
      </trkpt>
      <trkpt lat="48.79489" lon="2.2386">
        <ele>123</ele>
        <time>2019-12-29T11:21:25Z</time>
      </trkpt>
      <trkpt lat="48.79484" lon="2.23872">
        <ele>123</ele>
        <time>2019-12-29T11:21:33Z</time>
      </trkpt>
      <trkpt lat="48.79484" lon="2.23886">
        <ele>123</ele>
        <time>2019-12-29T11:21:41Z</time>
      </trkpt>
      <trkpt lat="48.79487" lon="2.23899">
        <ele>123</ele>
        <time>2019-12-29T11:21:49Z</time>
      </trkpt>
      <trkpt lat="48.79481" lon="2.23901">
        <ele>122</ele>
        <time>2019-12-29T11:27:53Z</time>
      </trkpt>
      <trkpt lat="48.79476" lon="2.239">
        <ele>123</ele>
        <time>2019-12-29T11:36:49Z</time>
      </trkpt>
      <trkpt lat="48.79479" lon="2.23895">
        <ele>124</ele>
        <time>2019-12-29T11:42:51Z</time>
      </trkpt>
      <trkpt lat="48.79479" lon="2.23895">
        <ele>124</ele>
        <time>2019-12-29T11:42:51Z</time>
      </trkpt>
      <trkpt lat="48.79484" lon="2.23901">
        <ele>123</ele>
        <time>2019-12-29T11:43:11Z</time>
      </trkpt>
      <trkpt lat="48.79488" lon="2.2391">
        <ele>122</ele>
        <time>2019-12-29T11:45:15Z</time>
      </trkpt>
      <trkpt lat="48.79491" lon="2.23917">
        <ele>122</ele>
        <time>2019-12-29T11:45:18Z</time>
      </trkpt>
      <trkpt lat="48.79495" lon="2.2392">
        <ele>122</ele>
        <time>2019-12-29T11:45:21Z</time>
      </trkpt>
      <trkpt lat="48.79504" lon="2.23929">
        <ele>122</ele>
        <time>2019-12-29T11:45:27Z</time>
      </trkpt>
      <trkpt lat="48.79507" lon="2.23934">
        <ele>122</ele>
        <time>2019-12-29T11:45:30Z</time>
      </trkpt>
      <trkpt lat="48.79515" lon="2.23954">
        <ele>122</ele>
        <time>2019-12-29T11:45:40Z</time>
      </trkpt>
      <trkpt lat="48.79521" lon="2.23965">
        <ele>122</ele>
        <time>2019-12-29T11:45:47Z</time>
      </trkpt>
      <trkpt lat="48.79529" lon="2.24008">
        <ele>122</ele>
        <time>2019-12-29T11:46:09Z</time>
      </trkpt>
      <trkpt lat="48.79533" lon="2.24037">
        <ele>122</ele>
        <time>2019-12-29T11:46:25Z</time>
      </trkpt>
      <trkpt lat="48.79549" lon="2.24105">
        <ele>122</ele>
        <time>2019-12-29T11:46:59Z</time>
      </trkpt>
      <trkpt lat="48.79553" lon="2.24118">
        <ele>123</ele>
        <time>2019-12-29T11:47:06Z</time>
      </trkpt>
      <trkpt lat="48.79552" lon="2.24132">
        <ele>123</ele>
        <time>2019-12-29T11:47:16Z</time>
      </trkpt>
      <trkpt lat="48.79547" lon="2.24149">
        <ele>124</ele>
        <time>2019-12-29T11:47:25Z</time>
      </trkpt>
      <trkpt lat="48.79565" lon="2.2416">
        <ele>125</ele>
        <time>2019-12-29T11:47:53Z</time>
      </trkpt>
      <trkpt lat="48.79576" lon="2.24163">
        <ele>127</ele>
        <time>2019-12-29T11:48:05Z</time>
      </trkpt>
      <trkpt lat="48.79592" lon="2.24196">
        <ele>135</ele>
        <time>2019-12-29T11:48:35Z</time>
      </trkpt>
      <trkpt lat="48.796" lon="2.24204">
        <ele>136</ele>
        <time>2019-12-29T11:48:44Z</time>
      </trkpt>
      <trkpt lat="48.79603" lon="2.24209">
        <ele>137</ele>
        <time>2019-12-29T11:48:49Z</time>
      </trkpt>
      <trkpt lat="48.79608" lon="2.24214">
        <ele>138</ele>
        <time>2019-12-29T11:48:54Z</time>
      </trkpt>
      <trkpt lat="48.79614" lon="2.24226">
        <ele>140</ele>
        <time>2019-12-29T11:49:04Z</time>
      </trkpt>
      <trkpt lat="48.79619" lon="2.24241">
        <ele>143</ele>
        <time>2019-12-29T11:49:17Z</time>
      </trkpt>
      <trkpt lat="48.79638" lon="2.24264">
        <ele>148</ele>
        <time>2019-12-29T11:49:42Z</time>
      </trkpt>
      <trkpt lat="48.79644" lon="2.24279">
        <ele>151</ele>
        <time>2019-12-29T11:49:56Z</time>
      </trkpt>
      <trkpt lat="48.79649" lon="2.24295">
        <ele>154</ele>
        <time>2019-12-29T11:50:14Z</time>
      </trkpt>
      <trkpt lat="48.79657" lon="2.24304">
        <ele>156</ele>
        <time>2019-12-29T11:50:24Z</time>
      </trkpt>
      <trkpt lat="48.79663" lon="2.24314">
        <ele>158</ele>
        <time>2019-12-29T11:50:33Z</time>
      </trkpt>
      <trkpt lat="48.79669" lon="2.24318">
        <ele>160</ele>
        <time>2019-12-29T11:50:39Z</time>
      </trkpt>
      <trkpt lat="48.79679" lon="2.24337">
        <ele>165</ele>
        <time>2019-12-29T11:51:01Z</time>
      </trkpt>
      <trkpt lat="48.79683" lon="2.24352">
        <ele>167</ele>
        <time>2019-12-29T11:51:11Z</time>
      </trkpt>
      <trkpt lat="48.79688" lon="2.24358">
        <ele>168</ele>
        <time>2019-12-29T11:51:19Z</time>
      </trkpt>
      <trkpt lat="48.7969" lon="2.24367">
        <ele>171</ele>
        <time>2019-12-29T11:51:27Z</time>
      </trkpt>
      <trkpt lat="48.79695" lon="2.24371">
        <ele>171</ele>
        <time>2019-12-29T11:51:32Z</time>
      </trkpt>
      <trkpt lat="48.79691" lon="2.2438">
        <ele>173</ele>
        <time>2019-12-29T11:51:40Z</time>
      </trkpt>
      <trkpt lat="48.79684" lon="2.24389">
        <ele>172</ele>
        <time>2019-12-29T11:51:49Z</time>
      </trkpt>
      <trkpt lat="48.79684" lon="2.24403">
        <ele>171</ele>
        <time>2019-12-29T11:51:59Z</time>
      </trkpt>
      <trkpt lat="48.79687" lon="2.24408">
        <ele>171</ele>
        <time>2019-12-29T11:52:04Z</time>
      </trkpt>
      <trkpt lat="48.79688" lon="2.24427">
        <ele>169</ele>
        <time>2019-12-29T11:52:16Z</time>
      </trkpt>
      <trkpt lat="48.79691" lon="2.24434">
        <ele>169</ele>
        <time>2019-12-29T11:52:20Z</time>
      </trkpt>
      <trkpt lat="48.79694" lon="2.24447">
        <ele>169</ele>
        <time>2019-12-29T11:52:27Z</time>
      </trkpt>
      <trkpt lat="48.79691" lon="2.24471">
        <ele>168</ele>
        <time>2019-12-29T11:52:39Z</time>
      </trkpt>
      <trkpt lat="48.79687" lon="2.24477">
        <ele>167</ele>
        <time>2019-12-29T11:52:44Z</time>
      </trkpt>
      <trkpt lat="48.79683" lon="2.24483">
        <ele>167</ele>
        <time>2019-12-29T11:52:50Z</time>
      </trkpt>
      <trkpt lat="48.79675" lon="2.24494">
        <ele>167</ele>
        <time>2019-12-29T11:52:58Z</time>
      </trkpt>
      <trkpt lat="48.79667" lon="2.24502">
        <ele>167</ele>
        <time>2019-12-29T11:53:06Z</time>
      </trkpt>
      <trkpt lat="48.7966" lon="2.24511">
        <ele>165</ele>
        <time>2019-12-29T11:53:16Z</time>
      </trkpt>
      <trkpt lat="48.79651" lon="2.24519">
        <ele>164</ele>
        <time>2019-12-29T11:53:24Z</time>
      </trkpt>
      <trkpt lat="48.79643" lon="2.24526">
        <ele>163</ele>
        <time>2019-12-29T11:53:32Z</time>
      </trkpt>
      <trkpt lat="48.79635" lon="2.24533">
        <ele>162</ele>
        <time>2019-12-29T11:53:41Z</time>
      </trkpt>
      <trkpt lat="48.79629" lon="2.24543">
        <ele>161</ele>
        <time>2019-12-29T11:53:51Z</time>
      </trkpt>
      <trkpt lat="48.79625" lon="2.24565">
        <ele>157</ele>
        <time>2019-12-29T11:54:09Z</time>
      </trkpt>
      <trkpt lat="48.79624" lon="2.24579">
        <ele>157</ele>
        <time>2019-12-29T11:54:17Z</time>
      </trkpt>
      <trkpt lat="48.79622" lon="2.24593">
        <ele>158</ele>
        <time>2019-12-29T11:54:25Z</time>
      </trkpt>
      <trkpt lat="48.79613" lon="2.24619">
        <ele>157</ele>
        <time>2019-12-29T11:54:42Z</time>
      </trkpt>
      <trkpt lat="48.79603" lon="2.24633">
        <ele>156</ele>
        <time>2019-12-29T11:54:57Z</time>
      </trkpt>
      <trkpt lat="48.79595" lon="2.24638">
        <ele>155</ele>
        <time>2019-12-29T11:55:06Z</time>
      </trkpt>
      <trkpt lat="48.79578" lon="2.24652">
        <ele>156</ele>
        <time>2019-12-29T11:55:24Z</time>
      </trkpt>
      <trkpt lat="48.79563" lon="2.24672">
        <ele>158</ele>
        <time>2019-12-29T11:55:42Z</time>
      </trkpt>
      <trkpt lat="48.79556" lon="2.2468">
        <ele>156</ele>
        <time>2019-12-29T11:55:50Z</time>
      </trkpt>
      <trkpt lat="48.79533" lon="2.24695">
        <ele>156</ele>
        <time>2019-12-29T11:56:38Z</time>
      </trkpt>
      <trkpt lat="48.79549" lon="2.24715">
        <ele>157</ele>
        <time>2019-12-29T11:57:11Z</time>
      </trkpt>
      <trkpt lat="48.79549" lon="2.24722">
        <ele>157</ele>
        <time>2019-12-29T11:57:15Z</time>
      </trkpt>
      <trkpt lat="48.79552" lon="2.24728">
        <ele>158</ele>
        <time>2019-12-29T11:57:20Z</time>
      </trkpt>
      <trkpt lat="48.79553" lon="2.24735">
        <ele>158</ele>
        <time>2019-12-29T11:57:24Z</time>
      </trkpt>
      <trkpt lat="48.79556" lon="2.24741">
        <ele>159</ele>
        <time>2019-12-29T11:57:28Z</time>
      </trkpt>
      <trkpt lat="48.79559" lon="2.24748">
        <ele>159</ele>
        <time>2019-12-29T11:57:32Z</time>
      </trkpt>
      <trkpt lat="48.7956" lon="2.24757">
        <ele>160</ele>
        <time>2019-12-29T11:57:39Z</time>
      </trkpt>
      <trkpt lat="48.79559" lon="2.24768">
        <ele>160</ele>
        <time>2019-12-29T11:57:46Z</time>
      </trkpt>
      <trkpt lat="48.7956" lon="2.24776">
        <ele>160</ele>
        <time>2019-12-29T11:57:50Z</time>
      </trkpt>
      <trkpt lat="48.79554" lon="2.24787">
        <ele>161</ele>
        <time>2019-12-29T11:59:04Z</time>
      </trkpt>
      <trkpt lat="48.79549" lon="2.24793">
        <ele>161</ele>
        <time>2019-12-29T11:59:19Z</time>
      </trkpt>
      <trkpt lat="48.79553" lon="2.24804">
        <ele>161</ele>
        <time>2019-12-29T11:59:27Z</time>
      </trkpt>
      <trkpt lat="48.79562" lon="2.2481">
        <ele>162</ele>
        <time>2019-12-29T11:59:33Z</time>
      </trkpt>
      <trkpt lat="48.79566" lon="2.24817">
        <ele>163</ele>
        <time>2019-12-29T11:59:40Z</time>
      </trkpt>
      <trkpt lat="48.79566" lon="2.24842">
        <ele>167</ele>
        <time>2019-12-29T12:00:00Z</time>
      </trkpt>
      <trkpt lat="48.79572" lon="2.24864">
        <ele>172</ele>
        <time>2019-12-29T12:00:17Z</time>
      </trkpt>
      <trkpt lat="48.79566" lon="2.24879">
        <ele>175</ele>
        <time>2019-12-29T12:00:30Z</time>
      </trkpt>
      <trkpt lat="48.79574" lon="2.24893">
        <ele>175</ele>
        <time>2019-12-29T12:00:42Z</time>
      </trkpt>
      <trkpt lat="48.79588" lon="2.24911">
        <ele>176</ele>
        <time>2019-12-29T12:00:58Z</time>
      </trkpt>
      <trkpt lat="48.79594" lon="2.24922">
        <ele>177</ele>
        <time>2019-12-29T12:01:08Z</time>
      </trkpt>
      <trkpt lat="48.79604" lon="2.24917">
        <ele>179</ele>
        <time>2019-12-29T12:01:21Z</time>
      </trkpt>
      <trkpt lat="48.79609" lon="2.2492">
        <ele>179</ele>
        <time>2019-12-29T12:01:39Z</time>
      </trkpt>
      <trkpt lat="48.79616" lon="2.24925">
        <ele>178</ele>
        <time>2019-12-29T12:01:57Z</time>
      </trkpt>
      <trkpt lat="48.7962" lon="2.24931">
        <ele>178</ele>
        <time>2019-12-29T12:02:01Z</time>
      </trkpt>
      <trkpt lat="48.79629" lon="2.24938">
        <ele>178</ele>
        <time>2019-12-29T12:02:08Z</time>
      </trkpt>
      <trkpt lat="48.79637" lon="2.2495">
        <ele>178</ele>
        <time>2019-12-29T12:02:16Z</time>
      </trkpt>
      <trkpt lat="48.79637" lon="2.24959">
        <ele>179</ele>
        <time>2019-12-29T12:02:27Z</time>
      </trkpt>
      <trkpt lat="48.79639" lon="2.24965">
        <ele>178</ele>
        <time>2019-12-29T12:02:31Z</time>
      </trkpt>
      <trkpt lat="48.79647" lon="2.24977">
        <ele>179</ele>
        <time>2019-12-29T12:02:39Z</time>
      </trkpt>
      <trkpt lat="48.79659" lon="2.25012">
        <ele>179</ele>
        <time>2019-12-29T12:02:57Z</time>
      </trkpt>
      <trkpt lat="48.79676" lon="2.25047">
        <ele>179</ele>
        <time>2019-12-29T12:03:20Z</time>
      </trkpt>
      <trkpt lat="48.79691" lon="2.25064">
        <ele>180</ele>
        <time>2019-12-29T12:03:33Z</time>
      </trkpt>
      <trkpt lat="48.79719" lon="2.25121">
        <ele>179</ele>
        <time>2019-12-29T12:04:08Z</time>
      </trkpt>
      <trkpt lat="48.79726" lon="2.25133">
        <ele>179</ele>
        <time>2019-12-29T12:04:15Z</time>
      </trkpt>
      <trkpt lat="48.79755" lon="2.25169">
        <ele>179</ele>
        <time>2019-12-29T12:04:41Z</time>
      </trkpt>
      <trkpt lat="48.79763" lon="2.25176">
        <ele>179</ele>
        <time>2019-12-29T12:04:48Z</time>
      </trkpt>
      <trkpt lat="48.7977" lon="2.25186">
        <ele>179</ele>
        <time>2019-12-29T12:04:56Z</time>
      </trkpt>
      <trkpt lat="48.79801" lon="2.25219">
        <ele>178</ele>
        <time>2019-12-29T12:05:26Z</time>
      </trkpt>
      <trkpt lat="48.79833" lon="2.25256">
        <ele>177</ele>
        <time>2019-12-29T12:05:57Z</time>
      </trkpt>
      <trkpt lat="48.7984" lon="2.25266">
        <ele>177</ele>
        <time>2019-12-29T12:06:05Z</time>
      </trkpt>
      <trkpt lat="48.79849" lon="2.25274">
        <ele>177</ele>
        <time>2019-12-29T12:06:12Z</time>
      </trkpt>
      <trkpt lat="48.79869" lon="2.25285">
        <ele>176</ele>
        <time>2019-12-29T12:06:29Z</time>
      </trkpt>
      <trkpt lat="48.79886" lon="2.25291">
        <ele>176</ele>
        <time>2019-12-29T12:06:43Z</time>
      </trkpt>
      <trkpt lat="48.79895" lon="2.25297">
        <ele>175</ele>
        <time>2019-12-29T12:06:51Z</time>
      </trkpt>
      <trkpt lat="48.79917" lon="2.25295">
        <ele>176</ele>
        <time>2019-12-29T12:07:06Z</time>
      </trkpt>
      <trkpt lat="48.7993" lon="2.25316">
        <ele>176</ele>
        <time>2019-12-29T12:07:22Z</time>
      </trkpt>
      <trkpt lat="48.7994" lon="2.25318">
        <ele>176</ele>
        <time>2019-12-29T12:07:30Z</time>
      </trkpt>
      <trkpt lat="48.7995" lon="2.25316">
        <ele>177</ele>
        <time>2019-12-29T12:07:46Z</time>
      </trkpt>
      <trkpt lat="48.7995" lon="2.25301">
        <ele>177</ele>
        <time>2019-12-29T12:08:08Z</time>
      </trkpt>
      <trkpt lat="48.7995" lon="2.25286">
        <ele>177</ele>
        <time>2019-12-29T12:08:16Z</time>
      </trkpt>
      <trkpt lat="48.79957" lon="2.25278">
        <ele>178</ele>
        <time>2019-12-29T12:08:23Z</time>
      </trkpt>
      <trkpt lat="48.79956" lon="2.25265">
        <ele>178</ele>
        <time>2019-12-29T12:08:30Z</time>
      </trkpt>
      <trkpt lat="48.79961" lon="2.25251">
        <ele>178</ele>
        <time>2019-12-29T12:08:37Z</time>
      </trkpt>
      <trkpt lat="48.79971" lon="2.2518">
        <ele>179</ele>
        <time>2019-12-29T12:09:12Z</time>
      </trkpt>
      <trkpt lat="48.79977" lon="2.25136">
        <ele>180</ele>
        <time>2019-12-29T12:09:34Z</time>
      </trkpt>
      <trkpt lat="48.79982" lon="2.25123">
        <ele>180</ele>
        <time>2019-12-29T12:09:40Z</time>
      </trkpt>
      <trkpt lat="48.79984" lon="2.2511">
        <ele>180</ele>
        <time>2019-12-29T12:09:46Z</time>
      </trkpt>
      <trkpt lat="48.79985" lon="2.25081">
        <ele>180</ele>
        <time>2019-12-29T12:10:00Z</time>
      </trkpt>
      <trkpt lat="48.79993" lon="2.25054">
        <ele>180</ele>
        <time>2019-12-29T12:10:14Z</time>
      </trkpt>
      <trkpt lat="48.79996" lon="2.25026">
        <ele>180</ele>
        <time>2019-12-29T12:10:27Z</time>
      </trkpt>
      <trkpt lat="48.79994" lon="2.25012">
        <ele>180</ele>
        <time>2019-12-29T12:10:34Z</time>
      </trkpt>
      <trkpt lat="48.79998" lon="2.24997">
        <ele>180</ele>
        <time>2019-12-29T12:10:41Z</time>
      </trkpt>
      <trkpt lat="48.80004" lon="2.24949">
        <ele>180</ele>
        <time>2019-12-29T12:11:03Z</time>
      </trkpt>
      <trkpt lat="48.80008" lon="2.24937">
        <ele>180</ele>
        <time>2019-12-29T12:11:09Z</time>
      </trkpt>
      <trkpt lat="48.80017" lon="2.24897">
        <ele>181</ele>
        <time>2019-12-29T12:11:30Z</time>
      </trkpt>
      <trkpt lat="48.80019" lon="2.24882">
        <ele>181</ele>
        <time>2019-12-29T12:11:38Z</time>
      </trkpt>
      <trkpt lat="48.80022" lon="2.24867">
        <ele>181</ele>
        <time>2019-12-29T12:11:46Z</time>
      </trkpt>
      <trkpt lat="48.80024" lon="2.24854">
        <ele>181</ele>
        <time>2019-12-29T12:11:53Z</time>
      </trkpt>
      <trkpt lat="48.80026" lon="2.2484">
        <ele>180</ele>
        <time>2019-12-29T12:12:01Z</time>
      </trkpt>
      <trkpt lat="48.80026" lon="2.24812">
        <ele>180</ele>
        <time>2019-12-29T12:12:16Z</time>
      </trkpt>
      <trkpt lat="48.80035" lon="2.24754">
        <ele>180</ele>
        <time>2019-12-29T12:12:50Z</time>
      </trkpt>
      <trkpt lat="48.80047" lon="2.24685">
        <ele>180</ele>
        <time>2019-12-29T12:13:26Z</time>
      </trkpt>
      <trkpt lat="48.80053" lon="2.24658">
        <ele>179</ele>
        <time>2019-12-29T12:13:39Z</time>
      </trkpt>
      <trkpt lat="48.80054" lon="2.24643">
        <ele>179</ele>
        <time>2019-12-29T12:13:46Z</time>
      </trkpt>
      <trkpt lat="48.80058" lon="2.24614">
        <ele>178</ele>
        <time>2019-12-29T12:14:03Z</time>
      </trkpt>
      <trkpt lat="48.80063" lon="2.24601">
        <ele>177</ele>
        <time>2019-12-29T12:14:11Z</time>
      </trkpt>
      <trkpt lat="48.80065" lon="2.2456">
        <ele>175</ele>
        <time>2019-12-29T12:14:53Z</time>
      </trkpt>
      <trkpt lat="48.8007" lon="2.24535">
        <ele>174</ele>
        <time>2019-12-29T12:15:04Z</time>
      </trkpt>
      <trkpt lat="48.80069" lon="2.24519">
        <ele>172</ele>
        <time>2019-12-29T12:15:12Z</time>
      </trkpt>
      <trkpt lat="48.80077" lon="2.24477">
        <ele>167</ele>
        <time>2019-12-29T12:15:41Z</time>
      </trkpt>
      <trkpt lat="48.80076" lon="2.24463">
        <ele>165</ele>
        <time>2019-12-29T12:15:49Z</time>
      </trkpt>
      <trkpt lat="48.80077" lon="2.24449">
        <ele>164</ele>
        <time>2019-12-29T12:15:56Z</time>
      </trkpt>
      <trkpt lat="48.80083" lon="2.24439">
        <ele>162</ele>
        <time>2019-12-29T12:16:06Z</time>
      </trkpt>
      <trkpt lat="48.80088" lon="2.24399">
        <ele>157</ele>
        <time>2019-12-29T12:16:35Z</time>
      </trkpt>
      <trkpt lat="48.80088" lon="2.24384">
        <ele>154</ele>
        <time>2019-12-29T12:16:49Z</time>
      </trkpt>
      <trkpt lat="48.801" lon="2.24377">
        <ele>154</ele>
        <time>2019-12-29T12:17:19Z</time>
      </trkpt>
      <trkpt lat="48.80096" lon="2.24349">
        <ele>151</ele>
        <time>2019-12-29T12:17:43Z</time>
      </trkpt>
      <trkpt lat="48.80104" lon="2.24303">
        <ele>144</ele>
        <time>2019-12-29T12:18:10Z</time>
      </trkpt>
      <trkpt lat="48.80109" lon="2.2429">
        <ele>142</ele>
        <time>2019-12-29T12:18:17Z</time>
      </trkpt>
      <trkpt lat="48.80113" lon="2.24234">
        <ele>135</ele>
        <time>2019-12-29T12:18:50Z</time>
      </trkpt>
      <trkpt lat="48.80116" lon="2.24221">
        <ele>133</ele>
        <time>2019-12-29T12:18:57Z</time>
      </trkpt>
      <trkpt lat="48.80111" lon="2.24207">
        <ele>132</ele>
        <time>2019-12-29T12:19:06Z</time>
      </trkpt>
      <trkpt lat="48.80104" lon="2.24195">
        <ele>131</ele>
        <time>2019-12-29T12:19:26Z</time>
      </trkpt>
      <trkpt lat="48.80094" lon="2.24197">
        <ele>131</ele>
        <time>2019-12-29T12:19:35Z</time>
      </trkpt>
      <trkpt lat="48.80078" lon="2.24182">
        <ele>130</ele>
        <time>2019-12-29T12:19:51Z</time>
      </trkpt>
      <trkpt lat="48.80057" lon="2.24117">
        <ele>131</ele>
        <time>2019-12-29T12:20:24Z</time>
      </trkpt>
      <trkpt lat="48.80055" lon="2.24102">
        <ele>131</ele>
        <time>2019-12-29T12:20:33Z</time>
      </trkpt>
      <trkpt lat="48.80048" lon="2.24093">
        <ele>132</ele>
        <time>2019-12-29T12:20:42Z</time>
      </trkpt>
      <trkpt lat="48.80039" lon="2.24085">
        <ele>132</ele>
        <time>2019-12-29T12:20:50Z</time>
      </trkpt>
      <trkpt lat="48.80029" lon="2.2408">
        <ele>131</ele>
        <time>2019-12-29T12:20:56Z</time>
      </trkpt>
      <trkpt lat="48.80011" lon="2.24072">
        <ele>129</ele>
        <time>2019-12-29T12:21:12Z</time>
      </trkpt>
      <trkpt lat="48.80002" lon="2.24061">
        <ele>127</ele>
        <time>2019-12-29T12:21:23Z</time>
      </trkpt>
      <trkpt lat="48.79994" lon="2.24053">
        <ele>127</ele>
        <time>2019-12-29T12:21:30Z</time>
      </trkpt>
      <trkpt lat="48.79973" lon="2.24048">
        <ele>125</ele>
        <time>2019-12-29T12:21:43Z</time>
      </trkpt>
      <trkpt lat="48.79966" lon="2.2404">
        <ele>124</ele>
        <time>2019-12-29T12:21:51Z</time>
      </trkpt>
      <trkpt lat="48.79923" lon="2.24005">
        <ele>123</ele>
        <time>2019-12-29T12:22:24Z</time>
      </trkpt>
      <trkpt lat="48.79911" lon="2.23979">
        <ele>122</ele>
        <time>2019-12-29T12:22:38Z</time>
      </trkpt>
      <trkpt lat="48.79905" lon="2.2397">
        <ele>122</ele>
        <time>2019-12-29T12:22:43Z</time>
      </trkpt>
      <trkpt lat="48.79896" lon="2.23953">
        <ele>121</ele>
        <time>2019-12-29T12:22:59Z</time>
      </trkpt>
      <trkpt lat="48.79884" lon="2.23941">
        <ele>121</ele>
        <time>2019-12-29T12:23:14Z</time>
      </trkpt>
      <trkpt lat="48.79866" lon="2.23922">
        <ele>120</ele>
        <time>2019-12-29T12:23:29Z</time>
      </trkpt>
      <trkpt lat="48.79857" lon="2.2392">
        <ele>120</ele>
        <time>2019-12-29T12:23:35Z</time>
      </trkpt>
      <trkpt lat="48.79839" lon="2.23909">
        <ele>119</ele>
        <time>2019-12-29T12:23:52Z</time>
      </trkpt>
      <trkpt lat="48.7982" lon="2.23911">
        <ele>118</ele>
        <time>2019-12-29T12:24:02Z</time>
      </trkpt>
      <trkpt lat="48.79788" lon="2.23903">
        <ele>116</ele>
        <time>2019-12-29T12:24:30Z</time>
      </trkpt>
      <trkpt lat="48.79782" lon="2.23891">
        <ele>114</ele>
        <time>2019-12-29T12:25:10Z</time>
      </trkpt>
      <trkpt lat="48.79774" lon="2.23882">
        <ele>114</ele>
        <time>2019-12-29T12:25:20Z</time>
      </trkpt>
      <trkpt lat="48.79767" lon="2.23871">
        <ele>113</ele>
        <time>2019-12-29T12:25:28Z</time>
      </trkpt>
      <trkpt lat="48.79759" lon="2.23861">
        <ele>113</ele>
        <time>2019-12-29T12:25:34Z</time>
      </trkpt>
      <trkpt lat="48.79716" lon="2.23813">
        <ele>113</ele>
        <time>2019-12-29T12:26:07Z</time>
      </trkpt>
      <trkpt lat="48.79712" lon="2.2381">
        <ele>113</ele>
        <time>2019-12-29T12:26:11Z</time>
      </trkpt>
      <trkpt lat="48.79707" lon="2.23806">
        <ele>113</ele>
        <time>2019-12-29T12:26:16Z</time>
      </trkpt>
      <trkpt lat="48.79697" lon="2.23793">
        <ele>113</ele>
        <time>2019-12-29T12:26:27Z</time>
      </trkpt>
      <trkpt lat="48.79691" lon="2.23783">
        <ele>113</ele>
        <time>2019-12-29T12:26:34Z</time>
      </trkpt>
      <trkpt lat="48.79658" lon="2.23747">
        <ele>116</ele>
        <time>2019-12-29T12:27:04Z</time>
      </trkpt>
      <trkpt lat="48.79644" lon="2.23728">
        <ele>117</ele>
        <time>2019-12-29T12:27:20Z</time>
      </trkpt>
      <trkpt lat="48.79636" lon="2.23721">
        <ele>118</ele>
        <time>2019-12-29T12:27:29Z</time>
      </trkpt>
      <trkpt lat="48.79599" lon="2.23675">
        <ele>120</ele>
        <time>2019-12-29T12:28:07Z</time>
      </trkpt>
      <trkpt lat="48.79562" lon="2.2363">
        <ele>125</ele>
        <time>2019-12-29T12:28:44Z</time>
      </trkpt>
      <trkpt lat="48.79558" lon="2.23616">
        <ele>125</ele>
        <time>2019-12-29T12:28:51Z</time>
      </trkpt>
      <trkpt lat="48.79553" lon="2.23551">
        <ele>126</ele>
        <time>2019-12-29T12:29:25Z</time>
      </trkpt>
      <trkpt lat="48.79551" lon="2.23526">
        <ele>127</ele>
        <time>2019-12-29T12:29:38Z</time>
      </trkpt>
      <trkpt lat="48.79551" lon="2.23518">
        <ele>127</ele>
        <time>2019-12-29T12:29:43Z</time>
      </trkpt>
      <trkpt lat="48.79549" lon="2.23504">
        <ele>126</ele>
        <time>2019-12-29T12:29:49Z</time>
      </trkpt>
      <trkpt lat="48.79548" lon="2.23489">
        <ele>126</ele>
        <time>2019-12-29T12:29:57Z</time>
      </trkpt>
      <trkpt lat="48.79547" lon="2.23481">
        <ele>126</ele>
        <time>2019-12-29T12:30:01Z</time>
      </trkpt>
      <trkpt lat="48.79543" lon="2.23474">
        <ele>126</ele>
        <time>2019-12-29T12:30:05Z</time>
      </trkpt>
      <trkpt lat="48.79535" lon="2.23465">
        <ele>126</ele>
        <time>2019-12-29T12:30:12Z</time>
      </trkpt>
      <trkpt lat="48.79523" lon="2.23458">
        <ele>126</ele>
        <time>2019-12-29T12:30:24Z</time>
      </trkpt>
      <trkpt lat="48.79514" lon="2.23447">
        <ele>127</ele>
        <time>2019-12-29T12:30:32Z</time>
      </trkpt>
      <trkpt lat="48.79511" lon="2.23441">
        <ele>127</ele>
        <time>2019-12-29T12:30:35Z</time>
      </trkpt>
      <trkpt lat="48.79509" lon="2.23433">
        <ele>128</ele>
        <time>2019-12-29T12:30:39Z</time>
      </trkpt>
      <trkpt lat="48.7951" lon="2.23425">
        <ele>128</ele>
        <time>2019-12-29T12:30:43Z</time>
      </trkpt>
      <trkpt lat="48.79512" lon="2.23418">
        <ele>128</ele>
        <time>2019-12-29T12:30:47Z</time>
      </trkpt>
      <trkpt lat="48.7951" lon="2.23411">
        <ele>128</ele>
        <time>2019-12-29T12:31:19Z</time>
      </trkpt>
      <trkpt lat="48.79514" lon="2.23407">
        <ele>129</ele>
        <time>2019-12-29T12:32:10Z</time>
      </trkpt>
      <trkpt lat="48.79519" lon="2.23402">
        <ele>129</ele>
        <time>2019-12-29T12:32:32Z</time>
      </trkpt>
      <trkpt lat="48.79523" lon="2.23377">
        <ele>128</ele>
        <time>2019-12-29T12:33:07Z</time>
      </trkpt>
      <trkpt lat="48.79526" lon="2.23349">
        <ele>129</ele>
        <time>2019-12-29T12:33:21Z</time>
      </trkpt>
      <trkpt lat="48.79527" lon="2.23319">
        <ele>129</ele>
        <time>2019-12-29T12:33:35Z</time>
      </trkpt>
      <trkpt lat="48.79529" lon="2.23312">
        <ele>129</ele>
        <time>2019-12-29T12:33:39Z</time>
      </trkpt>
      <trkpt lat="48.79531" lon="2.23297">
        <ele>129</ele>
        <time>2019-12-29T12:33:47Z</time>
      </trkpt>
      <trkpt lat="48.79534" lon="2.2329">
        <ele>129</ele>
        <time>2019-12-29T12:33:51Z</time>
      </trkpt>
      <trkpt lat="48.79536" lon="2.23282">
        <ele>129</ele>
        <time>2019-12-29T12:33:55Z</time>
      </trkpt>
      <trkpt lat="48.79535" lon="2.23268">
        <ele>130</ele>
        <time>2019-12-29T12:34:02Z</time>
      </trkpt>
      <trkpt lat="48.79537" lon="2.2326">
        <ele>130</ele>
        <time>2019-12-29T12:34:07Z</time>
      </trkpt>
      <trkpt lat="48.79536" lon="2.23243">
        <ele>130</ele>
        <time>2019-12-29T12:34:15Z</time>
      </trkpt>
      <trkpt lat="48.7954" lon="2.23221">
        <ele>130</ele>
        <time>2019-12-29T12:34:28Z</time>
      </trkpt>
      <trkpt lat="48.7954" lon="2.23214">
        <ele>131</ele>
        <time>2019-12-29T12:34:32Z</time>
      </trkpt>
      <trkpt lat="48.79553" lon="2.23159">
        <ele>136</ele>
        <time>2019-12-29T12:35:06Z</time>
      </trkpt>
      <trkpt lat="48.79555" lon="2.23145">
        <ele>138</ele>
        <time>2019-12-29T12:35:13Z</time>
      </trkpt>
      <trkpt lat="48.79559" lon="2.23132">
        <ele>139</ele>
        <time>2019-12-29T12:35:21Z</time>
      </trkpt>
      <trkpt lat="48.7956" lon="2.23116">
        <ele>141</ele>
        <time>2019-12-29T12:35:29Z</time>
      </trkpt>
      <trkpt lat="48.79575" lon="2.23066">
        <ele>147</ele>
        <time>2019-12-29T12:36:04Z</time>
      </trkpt>
      <trkpt lat="48.79577" lon="2.23055">
        <ele>147</ele>
        <time>2019-12-29T12:36:11Z</time>
      </trkpt>
      <trkpt lat="48.79581" lon="2.2305">
        <ele>147</ele>
        <time>2019-12-29T12:36:16Z</time>
      </trkpt>
      <trkpt lat="48.79583" lon="2.23042">
        <ele>147</ele>
        <time>2019-12-29T12:36:21Z</time>
      </trkpt>
      <trkpt lat="48.79583" lon="2.23034">
        <ele>147</ele>
        <time>2019-12-29T12:36:25Z</time>
      </trkpt>
      <trkpt lat="48.79585" lon="2.23027">
        <ele>146</ele>
        <time>2019-12-29T12:36:30Z</time>
      </trkpt>
      <trkpt lat="48.79588" lon="2.2302">
        <ele>146</ele>
        <time>2019-12-29T12:36:34Z</time>
      </trkpt>
      <trkpt lat="48.79592" lon="2.23016">
        <ele>145</ele>
        <time>2019-12-29T12:36:38Z</time>
      </trkpt>
      <trkpt lat="48.79603" lon="2.22995">
        <ele>144</ele>
        <time>2019-12-29T12:36:53Z</time>
      </trkpt>
      <trkpt lat="48.79601" lon="2.22985">
        <ele>143</ele>
        <time>2019-12-29T12:36:59Z</time>
      </trkpt>
      <trkpt lat="48.79605" lon="2.22972">
        <ele>143</ele>
        <time>2019-12-29T12:37:07Z</time>
      </trkpt>
      <trkpt lat="48.79608" lon="2.22966">
        <ele>143</ele>
        <time>2019-12-29T12:37:11Z</time>
      </trkpt>
      <trkpt lat="48.7961" lon="2.2296">
        <ele>143</ele>
        <time>2019-12-29T12:37:16Z</time>
      </trkpt>
      <trkpt lat="48.79615" lon="2.22943">
        <ele>144</ele>
        <time>2019-12-29T12:37:28Z</time>
      </trkpt>
      <trkpt lat="48.79623" lon="2.22925">
        <ele>140</ele>
        <time>2019-12-29T12:37:50Z</time>
      </trkpt>
      <trkpt lat="48.79627" lon="2.22911">
        <ele>138</ele>
        <time>2019-12-29T12:37:59Z</time>
      </trkpt>
      <trkpt lat="48.7962" lon="2.22894">
        <ele>141</ele>
        <time>2019-12-29T12:38:16Z</time>
      </trkpt>
      <trkpt lat="48.79622" lon="2.22879">
        <ele>140</ele>
        <time>2019-12-29T12:38:25Z</time>
      </trkpt>
      <trkpt lat="48.79627" lon="2.22851">
        <ele>139</ele>
        <time>2019-12-29T12:38:37Z</time>
      </trkpt>
      <trkpt lat="48.79631" lon="2.22842">
        <ele>139</ele>
        <time>2019-12-29T12:38:43Z</time>
      </trkpt>
      <trkpt lat="48.79632" lon="2.22834">
        <ele>139</ele>
        <time>2019-12-29T12:38:47Z</time>
      </trkpt>
      <trkpt lat="48.79633" lon="2.22826">
        <ele>139</ele>
        <time>2019-12-29T12:38:51Z</time>
      </trkpt>
      <trkpt lat="48.79634" lon="2.22811">
        <ele>140</ele>
        <time>2019-12-29T12:39:00Z</time>
      </trkpt>
      <trkpt lat="48.79636" lon="2.22804">
        <ele>140</ele>
        <time>2019-12-29T12:39:04Z</time>
      </trkpt>
      <trkpt lat="48.79639" lon="2.22798">
        <ele>141</ele>
        <time>2019-12-29T12:39:08Z</time>
      </trkpt>
      <trkpt lat="48.79641" lon="2.22783">
        <ele>142</ele>
        <time>2019-12-29T12:39:16Z</time>
      </trkpt>
      <trkpt lat="48.79644" lon="2.22777">
        <ele>142</ele>
        <time>2019-12-29T12:39:20Z</time>
      </trkpt>
      <trkpt lat="48.79647" lon="2.22763">
        <ele>143</ele>
        <time>2019-12-29T12:39:28Z</time>
      </trkpt>
      <trkpt lat="48.79648" lon="2.22756">
        <ele>143</ele>
        <time>2019-12-29T12:39:33Z</time>
      </trkpt>
      <trkpt lat="48.7965" lon="2.22749">
        <ele>144</ele>
        <time>2019-12-29T12:39:38Z</time>
      </trkpt>
      <trkpt lat="48.79654" lon="2.22745">
        <ele>144</ele>
        <time>2019-12-29T12:39:43Z</time>
      </trkpt>
      <trkpt lat="48.79652" lon="2.22724">
        <ele>145</ele>
        <time>2019-12-29T12:40:01Z</time>
      </trkpt>
      <trkpt lat="48.79653" lon="2.22702">
        <ele>145</ele>
        <time>2019-12-29T12:40:13Z</time>
      </trkpt>
      <trkpt lat="48.79658" lon="2.22699">
        <ele>145</ele>
        <time>2019-12-29T12:40:20Z</time>
      </trkpt>
      <trkpt lat="48.7966" lon="2.22669">
        <ele>144</ele>
        <time>2019-12-29T12:40:37Z</time>
      </trkpt>
      <trkpt lat="48.79657" lon="2.22662">
        <ele>144</ele>
        <time>2019-12-29T12:40:41Z</time>
      </trkpt>
      <trkpt lat="48.79654" lon="2.22656">
        <ele>145</ele>
        <time>2019-12-29T12:40:45Z</time>
      </trkpt>
      <trkpt lat="48.79654" lon="2.22648">
        <ele>146</ele>
        <time>2019-12-29T12:40:49Z</time>
      </trkpt>
      <trkpt lat="48.79655" lon="2.2264">
        <ele>146</ele>
        <time>2019-12-29T12:40:54Z</time>
      </trkpt>
      <trkpt lat="48.79657" lon="2.22634">
        <ele>146</ele>
        <time>2019-12-29T12:40:58Z</time>
      </trkpt>
      <trkpt lat="48.79658" lon="2.22627">
        <ele>146</ele>
        <time>2019-12-29T12:41:03Z</time>
      </trkpt>
      <trkpt lat="48.79665" lon="2.22607">
        <ele>147</ele>
        <time>2019-12-29T12:41:15Z</time>
      </trkpt>
      <trkpt lat="48.79666" lon="2.226">
        <ele>147</ele>
        <time>2019-12-29T12:41:19Z</time>
      </trkpt>
      <trkpt lat="48.7967" lon="2.22585">
        <ele>148</ele>
        <time>2019-12-29T12:41:27Z</time>
      </trkpt>
      <trkpt lat="48.7967" lon="2.22577">
        <ele>148</ele>
        <time>2019-12-29T12:41:31Z</time>
      </trkpt>
      <trkpt lat="48.79676" lon="2.22539">
        <ele>150</ele>
        <time>2019-12-29T12:41:52Z</time>
      </trkpt>
      <trkpt lat="48.79676" lon="2.22528">
        <ele>151</ele>
        <time>2019-12-29T12:42:05Z</time>
      </trkpt>
      <trkpt lat="48.79677" lon="2.22521">
        <ele>151</ele>
        <time>2019-12-29T12:42:08Z</time>
      </trkpt>
      <trkpt lat="48.79682" lon="2.22508">
        <ele>152</ele>
        <time>2019-12-29T12:42:17Z</time>
      </trkpt>
      <trkpt lat="48.79686" lon="2.22483">
        <ele>154</ele>
        <time>2019-12-29T12:42:34Z</time>
      </trkpt>
      <trkpt lat="48.79686" lon="2.22465">
        <ele>155</ele>
        <time>2019-12-29T12:42:47Z</time>
      </trkpt>
      <trkpt lat="48.79686" lon="2.22437">
        <ele>156</ele>
        <time>2019-12-29T12:43:08Z</time>
      </trkpt>
      <trkpt lat="48.79687" lon="2.22426">
        <ele>157</ele>
        <time>2019-12-29T12:43:19Z</time>
      </trkpt>
      <trkpt lat="48.79688" lon="2.22416">
        <ele>158</ele>
        <time>2019-12-29T12:43:43Z</time>
      </trkpt>
      <trkpt lat="48.79691" lon="2.22391">
        <ele>160</ele>
        <time>2019-12-29T12:44:00Z</time>
      </trkpt>
      <trkpt lat="48.79689" lon="2.22383">
        <ele>160</ele>
        <time>2019-12-29T12:44:11Z</time>
      </trkpt>
      <trkpt lat="48.79687" lon="2.22377">
        <ele>160</ele>
        <time>2019-12-29T12:44:24Z</time>
      </trkpt>
      <trkpt lat="48.79687" lon="2.22362">
        <ele>161</ele>
        <time>2019-12-29T12:44:48Z</time>
      </trkpt>
      <trkpt lat="48.79693" lon="2.22321">
        <ele>164</ele>
        <time>2019-12-29T12:45:25Z</time>
      </trkpt>
      <trkpt lat="48.79695" lon="2.22307">
        <ele>165</ele>
        <time>2019-12-29T12:45:31Z</time>
      </trkpt>
      <trkpt lat="48.79699" lon="2.22295">
        <ele>166</ele>
        <time>2019-12-29T12:45:39Z</time>
      </trkpt>
      <trkpt lat="48.79703" lon="2.22266">
        <ele>168</ele>
        <time>2019-12-29T12:45:56Z</time>
      </trkpt>
      <trkpt lat="48.79718" lon="2.22229">
        <ele>170</ele>
        <time>2019-12-29T12:46:19Z</time>
      </trkpt>
      <trkpt lat="48.79715" lon="2.22214">
        <ele>170</ele>
        <time>2019-12-29T12:46:26Z</time>
      </trkpt>
      <trkpt lat="48.79715" lon="2.22203">
        <ele>171</ele>
        <time>2019-12-29T12:46:31Z</time>
      </trkpt>
      <trkpt lat="48.79717" lon="2.22182">
        <ele>172</ele>
        <time>2019-12-29T12:46:44Z</time>
      </trkpt>
      <trkpt lat="48.79722" lon="2.22164">
        <ele>171</ele>
        <time>2019-12-29T12:47:00Z</time>
      </trkpt>
      <trkpt lat="48.7972" lon="2.22155">
        <ele>171</ele>
        <time>2019-12-29T12:47:05Z</time>
      </trkpt>
      <trkpt lat="48.79724" lon="2.22149">
        <ele>170</ele>
        <time>2019-12-29T12:47:10Z</time>
      </trkpt>
      <trkpt lat="48.79742" lon="2.22112">
        <ele>170</ele>
        <time>2019-12-29T12:47:31Z</time>
      </trkpt>
      <trkpt lat="48.79743" lon="2.22105">
        <ele>170</ele>
        <time>2019-12-29T12:47:35Z</time>
      </trkpt>
      <trkpt lat="48.79747" lon="2.22099">
        <ele>170</ele>
        <time>2019-12-29T12:47:39Z</time>
      </trkpt>
      <trkpt lat="48.79749" lon="2.22091">
        <ele>170</ele>
        <time>2019-12-29T12:47:43Z</time>
      </trkpt>
      <trkpt lat="48.7975" lon="2.22084">
        <ele>170</ele>
        <time>2019-12-29T12:47:46Z</time>
      </trkpt>
      <trkpt lat="48.79761" lon="2.2205">
        <ele>170</ele>
        <time>2019-12-29T12:48:05Z</time>
      </trkpt>
      <trkpt lat="48.79764" lon="2.22026">
        <ele>170</ele>
        <time>2019-12-29T12:48:17Z</time>
      </trkpt>
      <trkpt lat="48.79771" lon="2.22004">
        <ele>170</ele>
        <time>2019-12-29T12:48:29Z</time>
      </trkpt>
      <trkpt lat="48.79772" lon="2.21996">
        <ele>171</ele>
        <time>2019-12-29T12:48:33Z</time>
      </trkpt>
      <trkpt lat="48.79779" lon="2.21984">
        <ele>171</ele>
        <time>2019-12-29T12:48:42Z</time>
      </trkpt>
      <trkpt lat="48.79784" lon="2.21963">
        <ele>171</ele>
        <time>2019-12-29T12:48:53Z</time>
      </trkpt>
      <trkpt lat="48.79787" lon="2.21948">
        <ele>172</ele>
        <time>2019-12-29T12:49:00Z</time>
      </trkpt>
      <trkpt lat="48.79792" lon="2.21932">
        <ele>172</ele>
        <time>2019-12-29T12:49:08Z</time>
      </trkpt>
      <trkpt lat="48.79801" lon="2.21869">
        <ele>176</ele>
        <time>2019-12-29T12:49:40Z</time>
      </trkpt>
      <trkpt lat="48.79801" lon="2.21863">
        <ele>176</ele>
        <time>2019-12-29T12:49:43Z</time>
      </trkpt>
      <trkpt lat="48.79802" lon="2.21856">
        <ele>176</ele>
        <time>2019-12-29T12:49:47Z</time>
      </trkpt>
      <trkpt lat="48.79804" lon="2.21849">
        <ele>176</ele>
        <time>2019-12-29T12:49:52Z</time>
      </trkpt>
      <trkpt lat="48.79807" lon="2.21833">
        <ele>176</ele>
        <time>2019-12-29T12:50:05Z</time>
      </trkpt>
      <trkpt lat="48.7981" lon="2.21826">
        <ele>176</ele>
        <time>2019-12-29T12:50:09Z</time>
      </trkpt>
      <trkpt lat="48.79809" lon="2.21796">
        <ele>177</ele>
        <time>2019-12-29T12:50:25Z</time>
      </trkpt>
      <trkpt lat="48.7981" lon="2.21789">
        <ele>177</ele>
        <time>2019-12-29T12:50:29Z</time>
      </trkpt>
      <trkpt lat="48.79811" lon="2.21782">
        <ele>177</ele>
        <time>2019-12-29T12:50:33Z</time>
      </trkpt>
      <trkpt lat="48.79813" lon="2.21775">
        <ele>177</ele>
        <time>2019-12-29T12:50:37Z</time>
      </trkpt>
      <trkpt lat="48.79814" lon="2.21766">
        <ele>177</ele>
        <time>2019-12-29T12:50:41Z</time>
      </trkpt>
      <trkpt lat="48.79816" lon="2.2176">
        <ele>177</ele>
        <time>2019-12-29T12:50:45Z</time>
      </trkpt>
      <trkpt lat="48.7982" lon="2.2172">
        <ele>177</ele>
        <time>2019-12-29T12:51:05Z</time>
      </trkpt>
      <trkpt lat="48.79822" lon="2.21712">
        <ele>178</ele>
        <time>2019-12-29T12:51:10Z</time>
      </trkpt>
      <trkpt lat="48.79822" lon="2.21704">
        <ele>178</ele>
        <time>2019-12-29T12:51:14Z</time>
      </trkpt>
      <trkpt lat="48.79826" lon="2.2166">
        <ele>179</ele>
        <time>2019-12-29T12:51:34Z</time>
      </trkpt>
      <trkpt lat="48.79822" lon="2.21649">
        <ele>179</ele>
        <time>2019-12-29T12:51:38Z</time>
      </trkpt>
      <trkpt lat="48.7981" lon="2.21632">
        <ele>182</ele>
        <time>2019-12-29T12:51:50Z</time>
      </trkpt>
      <trkpt lat="48.79811" lon="2.21617">
        <ele>183</ele>
        <time>2019-12-29T12:52:01Z</time>
      </trkpt>
      <trkpt lat="48.79811" lon="2.21597">
        <ele>185</ele>
        <time>2019-12-29T12:52:19Z</time>
      </trkpt>
      <trkpt lat="48.79809" lon="2.21577">
        <ele>185</ele>
        <time>2019-12-29T12:52:30Z</time>
      </trkpt>
      <trkpt lat="48.79804" lon="2.21567">
        <ele>186</ele>
        <time>2019-12-29T12:52:39Z</time>
      </trkpt>
      <trkpt lat="48.798" lon="2.21558">
        <ele>185</ele>
        <time>2019-12-29T12:52:45Z</time>
      </trkpt>
      <trkpt lat="48.79792" lon="2.21546">
        <ele>186</ele>
        <time>2019-12-29T12:52:53Z</time>
      </trkpt>
      <trkpt lat="48.79783" lon="2.21539">
        <ele>186</ele>
        <time>2019-12-29T12:53:03Z</time>
      </trkpt>
      <trkpt lat="48.79784" lon="2.2153">
        <ele>187</ele>
        <time>2019-12-29T12:53:23Z</time>
      </trkpt>
      <trkpt lat="48.79791" lon="2.21531">
        <ele>187</ele>
        <time>2019-12-29T12:53:41Z</time>
      </trkpt>
      <trkpt lat="48.79793" lon="2.21524">
        <ele>187</ele>
        <time>2019-12-29T12:54:00Z</time>
      </trkpt>
      <trkpt lat="48.79767" lon="2.21507">
        <ele>186</ele>
        <time>2019-12-29T12:54:30Z</time>
      </trkpt>
      <trkpt lat="48.7975" lon="2.21476">
        <ele>186</ele>
        <time>2019-12-29T12:54:45Z</time>
      </trkpt>
      <trkpt lat="48.79745" lon="2.21471">
        <ele>187</ele>
        <time>2019-12-29T12:54:48Z</time>
      </trkpt>
      <trkpt lat="48.7974" lon="2.21468">
        <ele>187</ele>
        <time>2019-12-29T12:54:51Z</time>
      </trkpt>
      <trkpt lat="48.79737" lon="2.21463">
        <ele>186</ele>
        <time>2019-12-29T12:54:54Z</time>
      </trkpt>
      <trkpt lat="48.79725" lon="2.21448">
        <ele>187</ele>
        <time>2019-12-29T12:55:06Z</time>
      </trkpt>
      <trkpt lat="48.7971" lon="2.21423">
        <ele>186</ele>
        <time>2019-12-29T12:55:23Z</time>
      </trkpt>
      <trkpt lat="48.797" lon="2.21403">
        <ele>186</ele>
        <time>2019-12-29T12:55:36Z</time>
      </trkpt>
      <trkpt lat="48.79691" lon="2.21393">
        <ele>187</ele>
        <time>2019-12-29T12:55:44Z</time>
      </trkpt>
      <trkpt lat="48.79688" lon="2.21386">
        <ele>187</ele>
        <time>2019-12-29T12:55:48Z</time>
      </trkpt>
      <trkpt lat="48.79662" lon="2.21367">
        <ele>188</ele>
        <time>2019-12-29T12:56:09Z</time>
      </trkpt>
      <trkpt lat="48.79666" lon="2.21354">
        <ele>190</ele>
        <time>2019-12-29T12:56:54Z</time>
      </trkpt>
      <trkpt lat="48.79655" lon="2.21341">
        <ele>189</ele>
        <time>2019-12-29T12:57:08Z</time>
      </trkpt>
      <trkpt lat="48.79644" lon="2.21327">
        <ele>190</ele>
        <time>2019-12-29T12:57:19Z</time>
      </trkpt>
      <trkpt lat="48.79618" lon="2.21285">
        <ele>190</ele>
        <time>2019-12-29T12:57:55Z</time>
      </trkpt>
      <trkpt lat="48.79607" lon="2.21277">
        <ele>191</ele>
        <time>2019-12-29T12:58:04Z</time>
      </trkpt>
      <trkpt lat="48.79603" lon="2.21272">
        <ele>191</ele>
        <time>2019-12-29T12:58:08Z</time>
      </trkpt>
      <trkpt lat="48.79599" lon="2.21265">
        <ele>191</ele>
        <time>2019-12-29T12:58:13Z</time>
      </trkpt>
      <trkpt lat="48.79595" lon="2.21261">
        <ele>190</ele>
        <time>2019-12-29T12:58:17Z</time>
      </trkpt>
      <trkpt lat="48.79586" lon="2.21253">
        <ele>190</ele>
        <time>2019-12-29T12:58:26Z</time>
      </trkpt>
      <trkpt lat="48.79581" lon="2.21251">
        <ele>190</ele>
        <time>2019-12-29T12:58:30Z</time>
      </trkpt>
      <trkpt lat="48.79574" lon="2.21241">
        <ele>190</ele>
        <time>2019-12-29T12:58:37Z</time>
      </trkpt>
      <trkpt lat="48.79565" lon="2.21231">
        <ele>190</ele>
        <time>2019-12-29T12:58:47Z</time>
      </trkpt>
      <trkpt lat="48.79561" lon="2.21225">
        <ele>191</ele>
        <time>2019-12-29T12:58:55Z</time>
      </trkpt>
      <trkpt lat="48.79553" lon="2.2122">
        <ele>191</ele>
        <time>2019-12-29T12:59:08Z</time>
      </trkpt>
      <trkpt lat="48.79534" lon="2.21211">
        <ele>190</ele>
        <time>2019-12-29T12:59:28Z</time>
      </trkpt>
      <trkpt lat="48.79528" lon="2.21208">
        <ele>191</ele>
        <time>2019-12-29T12:59:34Z</time>
      </trkpt>
      <trkpt lat="48.79523" lon="2.21208">
        <ele>191</ele>
        <time>2019-12-29T12:59:38Z</time>
      </trkpt>
      <trkpt lat="48.79513" lon="2.21205">
        <ele>191</ele>
        <time>2019-12-29T12:59:48Z</time>
      </trkpt>
      <trkpt lat="48.79508" lon="2.21206">
        <ele>191</ele>
        <time>2019-12-29T13:00:03Z</time>
      </trkpt>
      <trkpt lat="48.7951" lon="2.21194">
        <ele>191</ele>
        <time>2019-12-29T13:00:27Z</time>
      </trkpt>
      <trkpt lat="48.79506" lon="2.21191">
        <ele>191</ele>
        <time>2019-12-29T13:00:39Z</time>
      </trkpt>
      <trkpt lat="48.79495" lon="2.2119">
        <ele>191</ele>
        <time>2019-12-29T13:01:02Z</time>
      </trkpt>
      <trkpt lat="48.79486" lon="2.21194">
        <ele>191</ele>
        <time>2019-12-29T13:01:09Z</time>
      </trkpt>
      <trkpt lat="48.7948" lon="2.21194">
        <ele>192</ele>
        <time>2019-12-29T13:01:15Z</time>
      </trkpt>
      <trkpt lat="48.79476" lon="2.21191">
        <ele>192</ele>
        <time>2019-12-29T13:01:19Z</time>
      </trkpt>
      <trkpt lat="48.79466" lon="2.21191">
        <ele>192</ele>
        <time>2019-12-29T13:01:27Z</time>
      </trkpt>
      <trkpt lat="48.79462" lon="2.21188">
        <ele>192</ele>
        <time>2019-12-29T13:01:31Z</time>
      </trkpt>
      <trkpt lat="48.79452" lon="2.21186">
        <ele>192</ele>
        <time>2019-12-29T13:01:43Z</time>
      </trkpt>
      <trkpt lat="48.79433" lon="2.2118">
        <ele>192</ele>
        <time>2019-12-29T13:01:59Z</time>
      </trkpt>
      <trkpt lat="48.79415" lon="2.21182">
        <ele>192</ele>
        <time>2019-12-29T13:02:12Z</time>
      </trkpt>
      <trkpt lat="48.79402" lon="2.21177">
        <ele>192</ele>
        <time>2019-12-29T13:02:22Z</time>
      </trkpt>
      <trkpt lat="48.79394" lon="2.21173">
        <ele>191</ele>
        <time>2019-12-29T13:02:30Z</time>
      </trkpt>
      <trkpt lat="48.79369" lon="2.21166">
        <ele>191</ele>
        <time>2019-12-29T13:02:56Z</time>
      </trkpt>
      <trkpt lat="48.79361" lon="2.21158">
        <ele>191</ele>
        <time>2019-12-29T13:03:06Z</time>
      </trkpt>
      <trkpt lat="48.79323" lon="2.21152">
        <ele>191</ele>
        <time>2019-12-29T13:03:38Z</time>
      </trkpt>
      <trkpt lat="48.79304" lon="2.21151">
        <ele>192</ele>
        <time>2019-12-29T13:03:53Z</time>
      </trkpt>
      <trkpt lat="48.79295" lon="2.2115">
        <ele>191</ele>
        <time>2019-12-29T13:04:03Z</time>
      </trkpt>
      <trkpt lat="48.79245" lon="2.21141">
        <ele>192</ele>
        <time>2019-12-29T13:04:38Z</time>
      </trkpt>
      <trkpt lat="48.79238" lon="2.21134">
        <ele>192</ele>
        <time>2019-12-29T13:04:44Z</time>
      </trkpt>
      <trkpt lat="48.79211" lon="2.21127">
        <ele>192</ele>
        <time>2019-12-29T13:05:08Z</time>
      </trkpt>
      <trkpt lat="48.79202" lon="2.21122">
        <ele>192</ele>
        <time>2019-12-29T13:05:15Z</time>
      </trkpt>
      <trkpt lat="48.79199" lon="2.21113">
        <ele>192</ele>
        <time>2019-12-29T13:06:04Z</time>
      </trkpt>
      <trkpt lat="48.79206" lon="2.21105">
        <ele>192</ele>
        <time>2019-12-29T13:06:17Z</time>
      </trkpt>
      <trkpt lat="48.79222" lon="2.21093">
        <ele>192</ele>
        <time>2019-12-29T13:06:39Z</time>
      </trkpt>
      <trkpt lat="48.7923" lon="2.21084">
        <ele>191</ele>
        <time>2019-12-29T13:06:46Z</time>
      </trkpt>
      <trkpt lat="48.79238" lon="2.21073">
        <ele>191</ele>
        <time>2019-12-29T13:06:52Z</time>
      </trkpt>
      <trkpt lat="48.79257" lon="2.21063">
        <ele>191</ele>
        <time>2019-12-29T13:07:05Z</time>
      </trkpt>
      <trkpt lat="48.79279" lon="2.21044">
        <ele>191</ele>
        <time>2019-12-29T13:07:27Z</time>
      </trkpt>
      <trkpt lat="48.79296" lon="2.21035">
        <ele>190</ele>
        <time>2019-12-29T13:07:43Z</time>
      </trkpt>
      <trkpt lat="48.79305" lon="2.21029">
        <ele>190</ele>
        <time>2019-12-29T13:07:50Z</time>
      </trkpt>
      <trkpt lat="48.79314" lon="2.21027">
        <ele>190</ele>
        <time>2019-12-29T13:07:58Z</time>
      </trkpt>
      <trkpt lat="48.7933" lon="2.2101">
        <ele>190</ele>
        <time>2019-12-29T13:08:13Z</time>
      </trkpt>
      <trkpt lat="48.79348" lon="2.20999">
        <ele>190</ele>
        <time>2019-12-29T13:08:28Z</time>
      </trkpt>
      <trkpt lat="48.79356" lon="2.20991">
        <ele>190</ele>
        <time>2019-12-29T13:08:35Z</time>
      </trkpt>
      <trkpt lat="48.79377" lon="2.20976">
        <ele>190</ele>
        <time>2019-12-29T13:08:48Z</time>
      </trkpt>
      <trkpt lat="48.79384" lon="2.20966">
        <ele>190</ele>
        <time>2019-12-29T13:08:56Z</time>
      </trkpt>
      <trkpt lat="48.7939" lon="2.20955">
        <ele>190</ele>
        <time>2019-12-29T13:09:05Z</time>
      </trkpt>
      <trkpt lat="48.79396" lon="2.2095">
        <ele>189</ele>
        <time>2019-12-29T13:09:20Z</time>
      </trkpt>
      <trkpt lat="48.79401" lon="2.2095">
        <ele>189</ele>
        <time>2019-12-29T13:09:45Z</time>
      </trkpt>
      <trkpt lat="48.79405" lon="2.20969">
        <ele>190</ele>
        <time>2019-12-29T13:10:06Z</time>
      </trkpt>
      <trkpt lat="48.79395" lon="2.20962">
        <ele>189</ele>
        <time>2019-12-29T13:10:58Z</time>
      </trkpt>
      <trkpt lat="48.79396" lon="2.20955">
        <ele>190</ele>
        <time>2019-12-29T13:14:30Z</time>
      </trkpt>
      <trkpt lat="48.79401" lon="2.2095">
        <ele>190</ele>
        <time>2019-12-29T13:14:33Z</time>
      </trkpt>
      <trkpt lat="48.79412" lon="2.20929">
        <ele>190</ele>
        <time>2019-12-29T13:14:56Z</time>
      </trkpt>
      <trkpt lat="48.79412" lon="2.20934">
        <ele>190</ele>
        <time>2019-12-29T13:15:12Z</time>
      </trkpt>
      <trkpt lat="48.79406" lon="2.20943">
        <ele>190</ele>
        <time>2019-12-29T13:15:20Z</time>
      </trkpt>
      <trkpt lat="48.79409" lon="2.20956">
        <ele>190</ele>
        <time>2019-12-29T13:15:41Z</time>
      </trkpt>
      <trkpt lat="48.79396" lon="2.2096">
        <ele>190</ele>
        <time>2019-12-29T13:16:14Z</time>
      </trkpt>
      <trkpt lat="48.79404" lon="2.2094">
        <ele>189</ele>
        <time>2019-12-29T13:16:47Z</time>
      </trkpt>
      <trkpt lat="48.79407" lon="2.20925">
        <ele>189</ele>
        <time>2019-12-29T13:16:54Z</time>
      </trkpt>
      <trkpt lat="48.79416" lon="2.20899">
        <ele>188</ele>
        <time>2019-12-29T13:17:09Z</time>
      </trkpt>
      <trkpt lat="48.79418" lon="2.20885">
        <ele>188</ele>
        <time>2019-12-29T13:17:16Z</time>
      </trkpt>
      <trkpt lat="48.79426" lon="2.20877">
        <ele>187</ele>
        <time>2019-12-29T13:17:24Z</time>
      </trkpt>
      <trkpt lat="48.79449" lon="2.20811">
        <ele>186</ele>
        <time>2019-12-29T13:18:02Z</time>
      </trkpt>
      <trkpt lat="48.79469" lon="2.20761">
        <ele>188</ele>
        <time>2019-12-29T13:18:34Z</time>
      </trkpt>
      <trkpt lat="48.79488" lon="2.20713">
        <ele>188</ele>
        <time>2019-12-29T13:19:03Z</time>
      </trkpt>
      <trkpt lat="48.79489" lon="2.20699">
        <ele>188</ele>
        <time>2019-12-29T13:19:10Z</time>
      </trkpt>
      <trkpt lat="48.79493" lon="2.20669">
        <ele>189</ele>
        <time>2019-12-29T13:19:24Z</time>
      </trkpt>
      <trkpt lat="48.7949" lon="2.20641">
        <ele>189</ele>
        <time>2019-12-29T13:19:39Z</time>
      </trkpt>
      <trkpt lat="48.79501" lon="2.20569">
        <ele>189</ele>
        <time>2019-12-29T13:20:13Z</time>
      </trkpt>
      <trkpt lat="48.7951" lon="2.20543">
        <ele>189</ele>
        <time>2019-12-29T13:20:28Z</time>
      </trkpt>
      <trkpt lat="48.79517" lon="2.20531">
        <ele>189</ele>
        <time>2019-12-29T13:20:35Z</time>
      </trkpt>
      <trkpt lat="48.7954" lon="2.20508">
        <ele>188</ele>
        <time>2019-12-29T13:20:56Z</time>
      </trkpt>
      <trkpt lat="48.79553" lon="2.20485">
        <ele>188</ele>
        <time>2019-12-29T13:21:10Z</time>
      </trkpt>
      <trkpt lat="48.79587" lon="2.20433">
        <ele>189</ele>
        <time>2019-12-29T13:21:44Z</time>
      </trkpt>
      <trkpt lat="48.79596" lon="2.20433">
        <ele>189</ele>
        <time>2019-12-29T13:21:51Z</time>
      </trkpt>
      <trkpt lat="48.79605" lon="2.20438">
        <ele>189</ele>
        <time>2019-12-29T13:21:58Z</time>
      </trkpt>
      <trkpt lat="48.79615" lon="2.20439">
        <ele>189</ele>
        <time>2019-12-29T13:22:06Z</time>
      </trkpt>
      <trkpt lat="48.79622" lon="2.20448">
        <ele>190</ele>
        <time>2019-12-29T13:22:13Z</time>
      </trkpt>
      <trkpt lat="48.79631" lon="2.20454">
        <ele>190</ele>
        <time>2019-12-29T13:22:20Z</time>
      </trkpt>
      <trkpt lat="48.7965" lon="2.20454">
        <ele>190</ele>
        <time>2019-12-29T13:22:38Z</time>
      </trkpt>
      <trkpt lat="48.79698" lon="2.20443">
        <ele>190</ele>
        <time>2019-12-29T13:23:14Z</time>
      </trkpt>
      <trkpt lat="48.79728" lon="2.20405">
        <ele>190</ele>
        <time>2019-12-29T13:23:43Z</time>
      </trkpt>
      <trkpt lat="48.79733" lon="2.20395">
        <ele>189</ele>
        <time>2019-12-29T13:23:50Z</time>
      </trkpt>
      <trkpt lat="48.79739" lon="2.20381">
        <ele>188</ele>
        <time>2019-12-29T13:23:57Z</time>
      </trkpt>
      <trkpt lat="48.79746" lon="2.20369">
        <ele>188</ele>
        <time>2019-12-29T13:24:04Z</time>
      </trkpt>
      <trkpt lat="48.79748" lon="2.20362">
        <ele>188</ele>
        <time>2019-12-29T13:24:08Z</time>
      </trkpt>
      <trkpt lat="48.79768" lon="2.2033">
        <ele>186</ele>
        <time>2019-12-29T13:24:33Z</time>
      </trkpt>
      <trkpt lat="48.79771" lon="2.20324">
        <ele>186</ele>
        <time>2019-12-29T13:24:37Z</time>
      </trkpt>
      <trkpt lat="48.79807" lon="2.20279">
        <ele>187</ele>
        <time>2019-12-29T13:25:10Z</time>
      </trkpt>
      <trkpt lat="48.79818" lon="2.20263">
        <ele>186</ele>
        <time>2019-12-29T13:25:20Z</time>
      </trkpt>
      <trkpt lat="48.79822" lon="2.2026">
        <ele>186</ele>
        <time>2019-12-29T13:25:24Z</time>
      </trkpt>
      <trkpt lat="48.79826" lon="2.20258">
        <ele>186</ele>
        <time>2019-12-29T13:25:28Z</time>
      </trkpt>
      <trkpt lat="48.7983" lon="2.20251">
        <ele>186</ele>
        <time>2019-12-29T13:25:37Z</time>
      </trkpt>
      <trkpt lat="48.79837" lon="2.20249">
        <ele>187</ele>
        <time>2019-12-29T13:26:07Z</time>
      </trkpt>
      <trkpt lat="48.79843" lon="2.2024">
        <ele>185</ele>
        <time>2019-12-29T13:26:37Z</time>
      </trkpt>
      <trkpt lat="48.79851" lon="2.20231">
        <ele>184</ele>
        <time>2019-12-29T13:26:46Z</time>
      </trkpt>
      <trkpt lat="48.79858" lon="2.20222">
        <ele>180</ele>
        <time>2019-12-29T13:26:59Z</time>
      </trkpt>
      <trkpt lat="48.7986" lon="2.20216">
        <ele>179</ele>
        <time>2019-12-29T13:27:04Z</time>
      </trkpt>
      <trkpt lat="48.7987" lon="2.20209">
        <ele>175</ele>
        <time>2019-12-29T13:27:17Z</time>
      </trkpt>
      <trkpt lat="48.79873" lon="2.20202">
        <ele>173</ele>
        <time>2019-12-29T13:27:23Z</time>
      </trkpt>
      <trkpt lat="48.79894" lon="2.20178">
        <ele>164</ele>
        <time>2019-12-29T13:27:55Z</time>
      </trkpt>
      <trkpt lat="48.79903" lon="2.2017">
        <ele>163</ele>
        <time>2019-12-29T13:28:15Z</time>
      </trkpt>
      <trkpt lat="48.79918" lon="2.20154">
        <ele>157</ele>
        <time>2019-12-29T13:28:33Z</time>
      </trkpt>
      <trkpt lat="48.7993" lon="2.20139">
        <ele>155</ele>
        <time>2019-12-29T13:28:44Z</time>
      </trkpt>
      <trkpt lat="48.79933" lon="2.20135">
        <ele>153</ele>
        <time>2019-12-29T13:28:49Z</time>
      </trkpt>
      <trkpt lat="48.79937" lon="2.20129">
        <ele>152</ele>
        <time>2019-12-29T13:28:54Z</time>
      </trkpt>
      <trkpt lat="48.79942" lon="2.20123">
        <ele>149</ele>
        <time>2019-12-29T13:29:04Z</time>
      </trkpt>
      <trkpt lat="48.79954" lon="2.20107">
        <ele>146</ele>
        <time>2019-12-29T13:29:17Z</time>
      </trkpt>
      <trkpt lat="48.79963" lon="2.20102">
        <ele>144</ele>
        <time>2019-12-29T13:29:24Z</time>
      </trkpt>
      <trkpt lat="48.79979" lon="2.20092">
        <ele>143</ele>
        <time>2019-12-29T13:29:57Z</time>
      </trkpt>
      <trkpt lat="48.79986" lon="2.20081">
        <ele>143</ele>
        <time>2019-12-29T13:30:04Z</time>
      </trkpt>
      <trkpt lat="48.79991" lon="2.2007">
        <ele>144</ele>
        <time>2019-12-29T13:30:14Z</time>
      </trkpt>
      <trkpt lat="48.8" lon="2.2006">
        <ele>145</ele>
        <time>2019-12-29T13:30:23Z</time>
      </trkpt>
      <trkpt lat="48.8001" lon="2.20048">
        <ele>146</ele>
        <time>2019-12-29T13:30:32Z</time>
      </trkpt>
      <trkpt lat="48.80027" lon="2.20043">
        <ele>147</ele>
        <time>2019-12-29T13:30:43Z</time>
      </trkpt>
      <trkpt lat="48.80036" lon="2.20037">
        <ele>149</ele>
        <time>2019-12-29T13:30:52Z</time>
      </trkpt>
      <trkpt lat="48.80059" lon="2.20035">
        <ele>152</ele>
        <time>2019-12-29T13:31:15Z</time>
      </trkpt>
      <trkpt lat="48.8008" lon="2.20025">
        <ele>154</ele>
        <time>2019-12-29T13:31:31Z</time>
      </trkpt>
      <trkpt lat="48.80105" lon="2.20006">
        <ele>156</ele>
        <time>2019-12-29T13:31:55Z</time>
      </trkpt>
      <trkpt lat="48.80123" lon="2.19996">
        <ele>156</ele>
        <time>2019-12-29T13:32:08Z</time>
      </trkpt>
      <trkpt lat="48.80132" lon="2.19989">
        <ele>155</ele>
        <time>2019-12-29T13:32:17Z</time>
      </trkpt>
      <trkpt lat="48.80139" lon="2.1998">
        <ele>154</ele>
        <time>2019-12-29T13:32:26Z</time>
      </trkpt>
      <trkpt lat="48.80158" lon="2.19978">
        <ele>152</ele>
        <time>2019-12-29T13:32:39Z</time>
      </trkpt>
      <trkpt lat="48.80174" lon="2.19966">
        <ele>152</ele>
        <time>2019-12-29T13:32:54Z</time>
      </trkpt>
      <trkpt lat="48.80183" lon="2.19959">
        <ele>152</ele>
        <time>2019-12-29T13:33:02Z</time>
      </trkpt>
      <trkpt lat="48.80192" lon="2.19957">
        <ele>152</ele>
        <time>2019-12-29T13:33:08Z</time>
      </trkpt>
      <trkpt lat="48.802" lon="2.19952">
        <ele>152</ele>
        <time>2019-12-29T13:33:15Z</time>
      </trkpt>
      <trkpt lat="48.80211" lon="2.19959">
        <ele>153</ele>
        <time>2019-12-29T13:33:31Z</time>
      </trkpt>
      <trkpt lat="48.80227" lon="2.19939">
        <ele>154</ele>
        <time>2019-12-29T13:33:55Z</time>
      </trkpt>
      <trkpt lat="48.80237" lon="2.19934">
        <ele>157</ele>
        <time>2019-12-29T13:34:07Z</time>
      </trkpt>
      <trkpt lat="48.80245" lon="2.19925">
        <ele>158</ele>
        <time>2019-12-29T13:34:15Z</time>
      </trkpt>
      <trkpt lat="48.80279" lon="2.19903">
        <ele>161</ele>
        <time>2019-12-29T13:34:47Z</time>
      </trkpt>
      <trkpt lat="48.80297" lon="2.1989">
        <ele>162</ele>
        <time>2019-12-29T13:35:02Z</time>
      </trkpt>
      <trkpt lat="48.80307" lon="2.19895">
        <ele>164</ele>
        <time>2019-12-29T13:35:15Z</time>
      </trkpt>
      <trkpt lat="48.80323" lon="2.19878">
        <ele>163</ele>
        <time>2019-12-29T13:35:25Z</time>
      </trkpt>
      <trkpt lat="48.80331" lon="2.19871">
        <ele>163</ele>
        <time>2019-12-29T13:35:31Z</time>
      </trkpt>
      <trkpt lat="48.8035" lon="2.19863">
        <ele>163</ele>
        <time>2019-12-29T13:35:49Z</time>
      </trkpt>
      <trkpt lat="48.80375" lon="2.19842">
        <ele>165</ele>
        <time>2019-12-29T13:36:12Z</time>
      </trkpt>
      <trkpt lat="48.80385" lon="2.1984">
        <ele>165</ele>
        <time>2019-12-29T13:36:22Z</time>
      </trkpt>
      <trkpt lat="48.80394" lon="2.19841">
        <ele>164</ele>
        <time>2019-12-29T13:36:30Z</time>
      </trkpt>
      <trkpt lat="48.80418" lon="2.1983">
        <ele>162</ele>
        <time>2019-12-29T13:36:47Z</time>
      </trkpt>
      <trkpt lat="48.80423" lon="2.19825">
        <ele>162</ele>
        <time>2019-12-29T13:36:51Z</time>
      </trkpt>
      <trkpt lat="48.80428" lon="2.19825">
        <ele>162</ele>
        <time>2019-12-29T13:36:55Z</time>
      </trkpt>
      <trkpt lat="48.80432" lon="2.19829">
        <ele>162</ele>
        <time>2019-12-29T13:36:59Z</time>
      </trkpt>
      <trkpt lat="48.80447" lon="2.19836">
        <ele>159</ele>
        <time>2019-12-29T13:37:12Z</time>
      </trkpt>
      <trkpt lat="48.80472" lon="2.19841">
        <ele>155</ele>
        <time>2019-12-29T13:37:34Z</time>
      </trkpt>
      <trkpt lat="48.80486" lon="2.19848">
        <ele>154</ele>
        <time>2019-12-29T13:37:46Z</time>
      </trkpt>
      <trkpt lat="48.80496" lon="2.19849">
        <ele>153</ele>
        <time>2019-12-29T13:37:54Z</time>
      </trkpt>
      <trkpt lat="48.80517" lon="2.19862">
        <ele>150</ele>
        <time>2019-12-29T13:38:16Z</time>
      </trkpt>
      <trkpt lat="48.80547" lon="2.1987">
        <ele>149</ele>
        <time>2019-12-29T13:38:45Z</time>
      </trkpt>
      <trkpt lat="48.80556" lon="2.19869">
        <ele>148</ele>
        <time>2019-12-29T13:38:52Z</time>
      </trkpt>
      <trkpt lat="48.80598" lon="2.19881">
        <ele>143</ele>
        <time>2019-12-29T13:39:33Z</time>
      </trkpt>
      <trkpt lat="48.80607" lon="2.19892">
        <ele>142</ele>
        <time>2019-12-29T13:39:45Z</time>
      </trkpt>
      <trkpt lat="48.80612" lon="2.19904">
        <ele>143</ele>
        <time>2019-12-29T13:39:55Z</time>
      </trkpt>
      <trkpt lat="48.80625" lon="2.19905">
        <ele>142</ele>
        <time>2019-12-29T13:40:09Z</time>
      </trkpt>
      <trkpt lat="48.80643" lon="2.19907">
        <ele>140</ele>
        <time>2019-12-29T13:41:05Z</time>
      </trkpt>
      <trkpt lat="48.80651" lon="2.19912">
        <ele>139</ele>
        <time>2019-12-29T13:41:12Z</time>
      </trkpt>
      <trkpt lat="48.80661" lon="2.19912">
        <ele>139</ele>
        <time>2019-12-29T13:41:19Z</time>
      </trkpt>
      <trkpt lat="48.80679" lon="2.19921">
        <ele>139</ele>
        <time>2019-12-29T13:41:31Z</time>
      </trkpt>
      <trkpt lat="48.80688" lon="2.19917">
        <ele>138</ele>
        <time>2019-12-29T13:41:39Z</time>
      </trkpt>
      <trkpt lat="48.80707" lon="2.19882">
        <ele>136</ele>
        <time>2019-12-29T13:42:03Z</time>
      </trkpt>
      <trkpt lat="48.80708" lon="2.19824">
        <ele>135</ele>
        <time>2019-12-29T13:42:30Z</time>
      </trkpt>
      <trkpt lat="48.80714" lon="2.19797">
        <ele>134</ele>
        <time>2019-12-29T13:42:46Z</time>
      </trkpt>
      <trkpt lat="48.80719" lon="2.19785">
        <ele>133</ele>
        <time>2019-12-29T13:42:53Z</time>
      </trkpt>
      <trkpt lat="48.80722" lon="2.19771">
        <ele>133</ele>
        <time>2019-12-29T13:43:00Z</time>
      </trkpt>
      <trkpt lat="48.80724" lon="2.19757">
        <ele>133</ele>
        <time>2019-12-29T13:43:07Z</time>
      </trkpt>
      <trkpt lat="48.80723" lon="2.1974">
        <ele>133</ele>
        <time>2019-12-29T13:43:13Z</time>
      </trkpt>
      <trkpt lat="48.80725" lon="2.19726">
        <ele>132</ele>
        <time>2019-12-29T13:43:18Z</time>
      </trkpt>
      <trkpt lat="48.80731" lon="2.19714">
        <ele>132</ele>
        <time>2019-12-29T13:43:24Z</time>
      </trkpt>
      <trkpt lat="48.80738" lon="2.19709">
        <ele>131</ele>
        <time>2019-12-29T13:43:33Z</time>
      </trkpt>
      <trkpt lat="48.80747" lon="2.19715">
        <ele>132</ele>
        <time>2019-12-29T13:43:44Z</time>
      </trkpt>
      <trkpt lat="48.80754" lon="2.19719">
        <ele>132</ele>
        <time>2019-12-29T13:44:03Z</time>
      </trkpt>
      <trkpt lat="48.80758" lon="2.19699">
        <ele>131</ele>
        <time>2019-12-29T13:44:30Z</time>
      </trkpt>
      <trkpt lat="48.80763" lon="2.19685">
        <ele>130</ele>
        <time>2019-12-29T13:44:38Z</time>
      </trkpt>
      <trkpt lat="48.80764" lon="2.19677">
        <ele>130</ele>
        <time>2019-12-29T13:44:41Z</time>
      </trkpt>
      <trkpt lat="48.80769" lon="2.19665">
        <ele>130</ele>
        <time>2019-12-29T13:44:48Z</time>
      </trkpt>
      <trkpt lat="48.80781" lon="2.19645">
        <ele>128</ele>
        <time>2019-12-29T13:45:00Z</time>
      </trkpt>
      <trkpt lat="48.80789" lon="2.19636">
        <ele>128</ele>
        <time>2019-12-29T13:45:07Z</time>
      </trkpt>
      <trkpt lat="48.80795" lon="2.19638">
        <ele>127</ele>
        <time>2019-12-29T13:45:11Z</time>
      </trkpt>
      <trkpt lat="48.80798" lon="2.19632">
        <ele>127</ele>
        <time>2019-12-29T13:45:16Z</time>
      </trkpt>
      <trkpt lat="48.80808" lon="2.19622">
        <ele>126</ele>
        <time>2019-12-29T13:45:27Z</time>
      </trkpt>
      <trkpt lat="48.8082" lon="2.19599">
        <ele>126</ele>
        <time>2019-12-29T13:45:41Z</time>
      </trkpt>
      <trkpt lat="48.80834" lon="2.19582">
        <ele>125</ele>
        <time>2019-12-29T13:45:54Z</time>
      </trkpt>
      <trkpt lat="48.80844" lon="2.19576">
        <ele>125</ele>
        <time>2019-12-29T13:46:02Z</time>
      </trkpt>
      <trkpt lat="48.80851" lon="2.19568">
        <ele>124</ele>
        <time>2019-12-29T13:46:12Z</time>
      </trkpt>
      <trkpt lat="48.80857" lon="2.19578">
        <ele>124</ele>
        <time>2019-12-29T13:46:20Z</time>
      </trkpt>
      <trkpt lat="48.80864" lon="2.19588">
        <ele>124</ele>
        <time>2019-12-29T13:46:28Z</time>
      </trkpt>
      <trkpt lat="48.80875" lon="2.19584">
        <ele>122</ele>
        <time>2019-12-29T13:46:38Z</time>
      </trkpt>
      <trkpt lat="48.80884" lon="2.19579">
        <ele>122</ele>
        <time>2019-12-29T13:46:44Z</time>
      </trkpt>
      <trkpt lat="48.80893" lon="2.19582">
        <ele>122</ele>
        <time>2019-12-29T13:46:50Z</time>
      </trkpt>
      <trkpt lat="48.809" lon="2.19591">
        <ele>121</ele>
        <time>2019-12-29T13:46:57Z</time>
      </trkpt>
      <trkpt lat="48.80907" lon="2.19608">
        <ele>124</ele>
        <time>2019-12-29T13:47:12Z</time>
      </trkpt>
      <trkpt lat="48.80911" lon="2.1962">
        <ele>124</ele>
        <time>2019-12-29T13:47:51Z</time>
      </trkpt>
      <trkpt lat="48.80914" lon="2.19616">
        <ele>121</ele>
        <time>2019-12-29T13:55:04Z</time>
      </trkpt>
      <trkpt lat="48.8093" lon="2.19622">
        <ele>123</ele>
        <time>2019-12-29T13:55:23Z</time>
      </trkpt>
      <trkpt lat="48.80967" lon="2.19651">
        <ele>127</ele>
        <time>2019-12-29T13:55:59Z</time>
      </trkpt>
      <trkpt lat="48.80976" lon="2.19658">
        <ele>127</ele>
        <time>2019-12-29T13:56:08Z</time>
      </trkpt>
      <trkpt lat="48.80988" lon="2.19654">
        <ele>128</ele>
        <time>2019-12-29T13:56:18Z</time>
      </trkpt>
      <trkpt lat="48.80997" lon="2.19652">
        <ele>128</ele>
        <time>2019-12-29T13:56:22Z</time>
      </trkpt>
      <trkpt lat="48.81008" lon="2.19639">
        <ele>127</ele>
        <time>2019-12-29T13:56:32Z</time>
      </trkpt>
      <trkpt lat="48.81013" lon="2.19628">
        <ele>127</ele>
        <time>2019-12-29T13:56:37Z</time>
      </trkpt>
      <trkpt lat="48.81021" lon="2.1962">
        <ele>126</ele>
        <time>2019-12-29T13:56:46Z</time>
      </trkpt>
      <trkpt lat="48.81029" lon="2.19613">
        <ele>127</ele>
        <time>2019-12-29T13:56:56Z</time>
      </trkpt>
      <trkpt lat="48.81038" lon="2.19609">
        <ele>127</ele>
        <time>2019-12-29T13:57:03Z</time>
      </trkpt>
      <trkpt lat="48.81046" lon="2.19599">
        <ele>128</ele>
        <time>2019-12-29T13:57:12Z</time>
      </trkpt>
      <trkpt lat="48.81051" lon="2.19589">
        <ele>129</ele>
        <time>2019-12-29T13:57:20Z</time>
      </trkpt>
      <trkpt lat="48.81063" lon="2.19582">
        <ele>130</ele>
        <time>2019-12-29T13:57:30Z</time>
      </trkpt>
      <trkpt lat="48.81071" lon="2.19579">
        <ele>130</ele>
        <time>2019-12-29T13:57:37Z</time>
      </trkpt>
      <trkpt lat="48.81079" lon="2.19572">
        <ele>131</ele>
        <time>2019-12-29T13:57:45Z</time>
      </trkpt>
      <trkpt lat="48.81107" lon="2.19565">
        <ele>128</ele>
        <time>2019-12-29T13:58:06Z</time>
      </trkpt>
      <trkpt lat="48.81126" lon="2.1956">
        <ele>129</ele>
        <time>2019-12-29T13:58:24Z</time>
      </trkpt>
      <trkpt lat="48.81154" lon="2.19568">
        <ele>134</ele>
        <time>2019-12-29T13:58:51Z</time>
      </trkpt>
      <trkpt lat="48.81168" lon="2.19584">
        <ele>136</ele>
        <time>2019-12-29T13:59:09Z</time>
      </trkpt>
      <trkpt lat="48.81178" lon="2.19594">
        <ele>138</ele>
        <time>2019-12-29T13:59:18Z</time>
      </trkpt>
      <trkpt lat="48.81184" lon="2.19604">
        <ele>139</ele>
        <time>2019-12-29T13:59:25Z</time>
      </trkpt>
      <trkpt lat="48.81204" lon="2.19625">
        <ele>142</ele>
        <time>2019-12-29T13:59:43Z</time>
      </trkpt>
      <trkpt lat="48.81224" lon="2.19658">
        <ele>144</ele>
        <time>2019-12-29T14:00:10Z</time>
      </trkpt>
      <trkpt lat="48.81251" lon="2.19673">
        <ele>143</ele>
        <time>2019-12-29T14:00:31Z</time>
      </trkpt>
      <trkpt lat="48.81266" lon="2.1969">
        <ele>143</ele>
        <time>2019-12-29T14:00:45Z</time>
      </trkpt>
      <trkpt lat="48.81283" lon="2.19701">
        <ele>141</ele>
        <time>2019-12-29T14:01:03Z</time>
      </trkpt>
      <trkpt lat="48.81308" lon="2.19709">
        <ele>138</ele>
        <time>2019-12-29T14:01:24Z</time>
      </trkpt>
      <trkpt lat="48.81316" lon="2.19718">
        <ele>137</ele>
        <time>2019-12-29T14:01:30Z</time>
      </trkpt>
      <trkpt lat="48.8132" lon="2.19732">
        <ele>137</ele>
        <time>2019-12-29T14:01:36Z</time>
      </trkpt>
      <trkpt lat="48.81323" lon="2.19745">
        <ele>137</ele>
        <time>2019-12-29T14:01:43Z</time>
      </trkpt>
      <trkpt lat="48.81329" lon="2.19752">
        <ele>137</ele>
        <time>2019-12-29T14:02:10Z</time>
      </trkpt>
      <trkpt lat="48.81334" lon="2.19752">
        <ele>136</ele>
        <time>2019-12-29T14:02:16Z</time>
      </trkpt>
      <trkpt lat="48.81333" lon="2.19761">
        <ele>134</ele>
        <time>2019-12-29T14:02:46Z</time>
      </trkpt>
      <trkpt lat="48.8133" lon="2.19767">
        <ele>135</ele>
        <time>2019-12-29T14:02:51Z</time>
      </trkpt>
      <trkpt lat="48.81332" lon="2.1978">
        <ele>136</ele>
        <time>2019-12-29T14:03:01Z</time>
      </trkpt>
      <trkpt lat="48.81335" lon="2.19787">
        <ele>135</ele>
        <time>2019-12-29T14:03:05Z</time>
      </trkpt>
      <trkpt lat="48.81339" lon="2.19794">
        <ele>135</ele>
        <time>2019-12-29T14:03:09Z</time>
      </trkpt>
      <trkpt lat="48.8134" lon="2.19803">
        <ele>135</ele>
        <time>2019-12-29T14:03:13Z</time>
      </trkpt>
      <trkpt lat="48.81344" lon="2.19817">
        <ele>135</ele>
        <time>2019-12-29T14:03:20Z</time>
      </trkpt>
      <trkpt lat="48.8135" lon="2.1983">
        <ele>134</ele>
        <time>2019-12-29T14:03:28Z</time>
      </trkpt>
      <trkpt lat="48.81351" lon="2.19845">
        <ele>134</ele>
        <time>2019-12-29T14:03:36Z</time>
      </trkpt>
      <trkpt lat="48.8135" lon="2.19853">
        <ele>134</ele>
        <time>2019-12-29T14:03:40Z</time>
      </trkpt>
      <trkpt lat="48.81351" lon="2.19866">
        <ele>134</ele>
        <time>2019-12-29T14:03:46Z</time>
      </trkpt>
      <trkpt lat="48.81355" lon="2.19873">
        <ele>134</ele>
        <time>2019-12-29T14:03:49Z</time>
      </trkpt>
      <trkpt lat="48.81358" lon="2.19889">
        <ele>134</ele>
        <time>2019-12-29T14:03:56Z</time>
      </trkpt>
      <trkpt lat="48.81369" lon="2.19914">
        <ele>136</ele>
        <time>2019-12-29T14:04:12Z</time>
      </trkpt>
      <trkpt lat="48.81364" lon="2.19911">
        <ele>137</ele>
        <time>2019-12-29T14:04:33Z</time>
      </trkpt>
      <trkpt lat="48.81362" lon="2.19905">
        <ele>137</ele>
        <time>2019-12-29T14:04:36Z</time>
      </trkpt>
      <trkpt lat="48.81371" lon="2.19873">
        <ele>133</ele>
        <time>2019-12-29T14:04:53Z</time>
      </trkpt>
      <trkpt lat="48.81379" lon="2.19861">
        <ele>131</ele>
        <time>2019-12-29T14:05:03Z</time>
      </trkpt>
      <trkpt lat="48.81381" lon="2.19854">
        <ele>131</ele>
        <time>2019-12-29T14:05:06Z</time>
      </trkpt>
      <trkpt lat="48.81386" lon="2.19841">
        <ele>130</ele>
        <time>2019-12-29T14:05:13Z</time>
      </trkpt>
      <trkpt lat="48.8139" lon="2.19836">
        <ele>130</ele>
        <time>2019-12-29T14:05:17Z</time>
      </trkpt>
      <trkpt lat="48.81397" lon="2.19829">
        <ele>129</ele>
        <time>2019-12-29T14:05:22Z</time>
      </trkpt>
      <trkpt lat="48.81407" lon="2.19815">
        <ele>127</ele>
        <time>2019-12-29T14:05:33Z</time>
      </trkpt>
      <trkpt lat="48.81416" lon="2.19807">
        <ele>126</ele>
        <time>2019-12-29T14:05:42Z</time>
      </trkpt>
      <trkpt lat="48.81435" lon="2.19775">
        <ele>122</ele>
        <time>2019-12-29T14:06:08Z</time>
      </trkpt>
      <trkpt lat="48.81441" lon="2.19759">
        <ele>120</ele>
        <time>2019-12-29T14:06:19Z</time>
      </trkpt>
      <trkpt lat="48.81457" lon="2.19742">
        <ele>118</ele>
        <time>2019-12-29T14:06:34Z</time>
      </trkpt>
      <trkpt lat="48.81466" lon="2.19738">
        <ele>118</ele>
        <time>2019-12-29T14:06:41Z</time>
      </trkpt>
      <trkpt lat="48.81471" lon="2.1974">
        <ele>117</ele>
        <time>2019-12-29T14:06:49Z</time>
      </trkpt>
      <trkpt lat="48.81477" lon="2.19746">
        <ele>117</ele>
        <time>2019-12-29T14:07:01Z</time>
      </trkpt>
      <trkpt lat="48.81493" lon="2.19751">
        <ele>117</ele>
        <time>2019-12-29T14:07:11Z</time>
      </trkpt>
      <trkpt lat="48.81508" lon="2.19759">
        <ele>116</ele>
        <time>2019-12-29T14:07:22Z</time>
      </trkpt>
      <trkpt lat="48.81533" lon="2.19785">
        <ele>117</ele>
        <time>2019-12-29T14:07:46Z</time>
      </trkpt>
      <trkpt lat="48.8154" lon="2.19797">
        <ele>117</ele>
        <time>2019-12-29T14:07:55Z</time>
      </trkpt>
      <trkpt lat="48.81547" lon="2.19805">
        <ele>117</ele>
        <time>2019-12-29T14:08:00Z</time>
      </trkpt>
      <trkpt lat="48.81563" lon="2.19821">
        <ele>119</ele>
        <time>2019-12-29T14:08:17Z</time>
      </trkpt>
      <trkpt lat="48.81573" lon="2.19808">
        <ele>118</ele>
        <time>2019-12-29T14:08:27Z</time>
      </trkpt>
      <trkpt lat="48.81584" lon="2.19782">
        <ele>116</ele>
        <time>2019-12-29T14:08:44Z</time>
      </trkpt>
      <trkpt lat="48.81584" lon="2.19774">
        <ele>115</ele>
        <time>2019-12-29T14:08:49Z</time>
      </trkpt>
      <trkpt lat="48.81583" lon="2.19767">
        <ele>114</ele>
        <time>2019-12-29T14:08:59Z</time>
      </trkpt>
      <trkpt lat="48.8158" lon="2.19761">
        <ele>114</ele>
        <time>2019-12-29T14:09:03Z</time>
      </trkpt>
      <trkpt lat="48.81576" lon="2.19755">
        <ele>114</ele>
        <time>2019-12-29T14:09:07Z</time>
      </trkpt>
      <trkpt lat="48.81568" lon="2.19749">
        <ele>113</ele>
        <time>2019-12-29T14:09:13Z</time>
      </trkpt>
      <trkpt lat="48.81539" lon="2.19723">
        <ele>110</ele>
        <time>2019-12-29T14:09:45Z</time>
      </trkpt>
      <trkpt lat="48.81535" lon="2.19721">
        <ele>109</ele>
        <time>2019-12-29T14:09:50Z</time>
      </trkpt>
      <trkpt lat="48.81526" lon="2.19714">
        <ele>108</ele>
        <time>2019-12-29T14:09:57Z</time>
      </trkpt>
      <trkpt lat="48.81515" lon="2.19689">
        <ele>107</ele>
        <time>2019-12-29T14:10:12Z</time>
      </trkpt>
      <trkpt lat="48.81514" lon="2.19681">
        <ele>107</ele>
        <time>2019-12-29T14:10:17Z</time>
      </trkpt>
      <trkpt lat="48.81516" lon="2.19671">
        <ele>106</ele>
        <time>2019-12-29T14:10:25Z</time>
      </trkpt>
      <trkpt lat="48.81528" lon="2.19649">
        <ele>103</ele>
        <time>2019-12-29T14:10:40Z</time>
      </trkpt>
      <trkpt lat="48.81558" lon="2.19609">
        <ele>97</ele>
        <time>2019-12-29T14:11:14Z</time>
      </trkpt>
      <trkpt lat="48.8156" lon="2.19602">
        <ele>97</ele>
        <time>2019-12-29T14:11:17Z</time>
      </trkpt>
      <trkpt lat="48.81563" lon="2.19596">
        <ele>96</ele>
        <time>2019-12-29T14:11:22Z</time>
      </trkpt>
      <trkpt lat="48.81585" lon="2.19568">
        <ele>92</ele>
        <time>2019-12-29T14:11:45Z</time>
      </trkpt>
      <trkpt lat="48.81593" lon="2.19547">
        <ele>88</ele>
        <time>2019-12-29T14:12:02Z</time>
      </trkpt>
      <trkpt lat="48.81626" lon="2.19513">
        <ele>83</ele>
        <time>2019-12-29T14:12:31Z</time>
      </trkpt>
      <trkpt lat="48.81629" lon="2.19501">
        <ele>82</ele>
        <time>2019-12-29T14:12:47Z</time>
      </trkpt>
      <trkpt lat="48.81637" lon="2.19492">
        <ele>81</ele>
        <time>2019-12-29T14:12:53Z</time>
      </trkpt>
      <trkpt lat="48.81639" lon="2.19471">
        <ele>79</ele>
        <time>2019-12-29T14:13:04Z</time>
      </trkpt>
    </trkseg>
  </trk>
</gpx>